<?xml version="1.0" encoding="UTF-8" standalone="no" ?>
<gpx xmlns="http://www.topografix.com/GPX/1/1" xmlns:xsi="http://www.w3.org/2001/XMLSchema-instance" xsi:schemaLocation="http://www.topografix.com/GPX/1/1 http://www.topografix.com/GPX/1/1/gpx.xsd" version="1.1" creator="VisuGPX - https://www.visugpx.com">
  <metadata>
    <name>CAMINO PRIMITIVO &quot;MELIDE -ARZUA&quot;</name>
    <desc><![CDATA[Nous avons encore du raccourcir cette étape, notre état de santé ne s'améliorant pas vraiment. Nous avons trouvé à Arzua une petite albergue ptivée trés agréable pour se refaire une santé.]]></desc>
  </metadata>
  <trk>
    <name><![CDATA[2016-07-18-01]]></name>
    <trkseg>
      <trkpt lat="42.9134" lon="-8.01924">
        <ele>479.1</ele>
        <time>2016-07-18T05:34:55Z</time>
      </trkpt>
      <trkpt lat="42.91338" lon="-8.0193">
        <ele>479</ele>
        <time>2016-07-18T05:34:57Z</time>
      </trkpt>
      <trkpt lat="42.91335" lon="-8.01943">
        <ele>478</ele>
        <time>2016-07-18T05:35:13Z</time>
      </trkpt>
      <trkpt lat="42.91334" lon="-8.01962">
        <ele>478</ele>
        <time>2016-07-18T05:35:17Z</time>
      </trkpt>
      <trkpt lat="42.91331" lon="-8.01983">
        <ele>478</ele>
        <time>2016-07-18T05:35:22Z</time>
      </trkpt>
      <trkpt lat="42.91329" lon="-8.01997">
        <ele>476</ele>
        <time>2016-07-18T05:35:26Z</time>
      </trkpt>
      <trkpt lat="42.91327" lon="-8.02009">
        <ele>477</ele>
        <time>2016-07-18T05:35:30Z</time>
      </trkpt>
      <trkpt lat="42.91319" lon="-8.02028">
        <ele>478</ele>
        <time>2016-07-18T05:35:38Z</time>
      </trkpt>
      <trkpt lat="42.91317" lon="-8.0204">
        <ele>478</ele>
        <time>2016-07-18T05:35:42Z</time>
      </trkpt>
      <trkpt lat="42.9131" lon="-8.02053">
        <ele>476</ele>
        <time>2016-07-18T05:35:50Z</time>
      </trkpt>
      <trkpt lat="42.91302" lon="-8.02075">
        <ele>474</ele>
        <time>2016-07-18T05:35:59Z</time>
      </trkpt>
      <trkpt lat="42.91294" lon="-8.02096">
        <ele>472</ele>
        <time>2016-07-18T05:36:04Z</time>
      </trkpt>
      <trkpt lat="42.91287" lon="-8.02113">
        <ele>471</ele>
        <time>2016-07-18T05:36:08Z</time>
      </trkpt>
      <trkpt lat="42.91283" lon="-8.02125">
        <ele>470</ele>
        <time>2016-07-18T05:36:12Z</time>
      </trkpt>
      <trkpt lat="42.9128" lon="-8.02144">
        <ele>467</ele>
        <time>2016-07-18T05:36:20Z</time>
      </trkpt>
      <trkpt lat="42.91271" lon="-8.02159">
        <ele>463</ele>
        <time>2016-07-18T05:36:28Z</time>
      </trkpt>
      <trkpt lat="42.91265" lon="-8.02171">
        <ele>460</ele>
        <time>2016-07-18T05:36:36Z</time>
      </trkpt>
      <trkpt lat="42.91261" lon="-8.02185">
        <ele>457</ele>
        <time>2016-07-18T05:36:44Z</time>
      </trkpt>
      <trkpt lat="42.91252" lon="-8.02196">
        <ele>453</ele>
        <time>2016-07-18T05:37:00Z</time>
      </trkpt>
      <trkpt lat="42.91248" lon="-8.0221">
        <ele>452</ele>
        <time>2016-07-18T05:37:08Z</time>
      </trkpt>
      <trkpt lat="42.91245" lon="-8.02223">
        <ele>450</ele>
        <time>2016-07-18T05:37:16Z</time>
      </trkpt>
      <trkpt lat="42.9124" lon="-8.02235">
        <ele>450</ele>
        <time>2016-07-18T05:37:24Z</time>
      </trkpt>
      <trkpt lat="42.91232" lon="-8.0225">
        <ele>449</ele>
        <time>2016-07-18T05:37:36Z</time>
      </trkpt>
      <trkpt lat="42.91224" lon="-8.02264">
        <ele>448</ele>
        <time>2016-07-18T05:37:48Z</time>
      </trkpt>
      <trkpt lat="42.91217" lon="-8.02271">
        <ele>448</ele>
        <time>2016-07-18T05:37:56Z</time>
      </trkpt>
      <trkpt lat="42.91207" lon="-8.02283">
        <ele>447</ele>
        <time>2016-07-18T05:38:08Z</time>
      </trkpt>
      <trkpt lat="42.912" lon="-8.02294">
        <ele>447</ele>
        <time>2016-07-18T05:38:16Z</time>
      </trkpt>
      <trkpt lat="42.91192" lon="-8.02305">
        <ele>446</ele>
        <time>2016-07-18T05:38:24Z</time>
      </trkpt>
      <trkpt lat="42.91187" lon="-8.0232">
        <ele>446</ele>
        <time>2016-07-18T05:38:36Z</time>
      </trkpt>
      <trkpt lat="42.91179" lon="-8.02328">
        <ele>446</ele>
        <time>2016-07-18T05:38:44Z</time>
      </trkpt>
      <trkpt lat="42.91173" lon="-8.02339">
        <ele>446.3</ele>
        <time>2016-07-18T05:38:52Z</time>
      </trkpt>
      <trkpt lat="42.91167" lon="-8.02348">
        <ele>442.5</ele>
        <time>2016-07-18T05:38:58Z</time>
      </trkpt>
      <trkpt lat="42.91161" lon="-8.02357">
        <ele>439.6</ele>
        <time>2016-07-18T05:39:05Z</time>
      </trkpt>
      <trkpt lat="42.91154" lon="-8.02367">
        <ele>437.9</ele>
        <time>2016-07-18T05:39:11Z</time>
      </trkpt>
      <trkpt lat="42.91148" lon="-8.02376">
        <ele>436.3</ele>
        <time>2016-07-18T05:39:18Z</time>
      </trkpt>
      <trkpt lat="42.91143" lon="-8.02388">
        <ele>435</ele>
        <time>2016-07-18T05:39:27Z</time>
      </trkpt>
      <trkpt lat="42.91137" lon="-8.02397">
        <ele>434</ele>
        <time>2016-07-18T05:39:35Z</time>
      </trkpt>
      <trkpt lat="42.9113" lon="-8.02406">
        <ele>433.8</ele>
        <time>2016-07-18T05:39:42Z</time>
      </trkpt>
      <trkpt lat="42.91123" lon="-8.02415">
        <ele>433.6</ele>
        <time>2016-07-18T05:39:48Z</time>
      </trkpt>
      <trkpt lat="42.91119" lon="-8.02426">
        <ele>433.4</ele>
        <time>2016-07-18T05:39:54Z</time>
      </trkpt>
      <trkpt lat="42.91114" lon="-8.02437">
        <ele>433.3</ele>
        <time>2016-07-18T05:40:00Z</time>
      </trkpt>
      <trkpt lat="42.91111" lon="-8.02449">
        <ele>433.2</ele>
        <time>2016-07-18T05:40:08Z</time>
      </trkpt>
      <trkpt lat="42.91111" lon="-8.02463">
        <ele>433.2</ele>
        <time>2016-07-18T05:40:16Z</time>
      </trkpt>
      <trkpt lat="42.91115" lon="-8.02474">
        <ele>432.9</ele>
        <time>2016-07-18T05:40:23Z</time>
      </trkpt>
      <trkpt lat="42.9112" lon="-8.02486">
        <ele>432.3</ele>
        <time>2016-07-18T05:40:34Z</time>
      </trkpt>
      <trkpt lat="42.91124" lon="-8.02497">
        <ele>431.6</ele>
        <time>2016-07-18T05:40:42Z</time>
      </trkpt>
      <trkpt lat="42.91129" lon="-8.02508">
        <ele>431</ele>
        <time>2016-07-18T05:40:50Z</time>
      </trkpt>
      <trkpt lat="42.91137" lon="-8.02515">
        <ele>429.6</ele>
        <time>2016-07-18T05:41:10Z</time>
      </trkpt>
      <trkpt lat="42.91137" lon="-8.02528">
        <ele>429.6</ele>
        <time>2016-07-18T05:41:22Z</time>
      </trkpt>
      <trkpt lat="42.9114" lon="-8.02539">
        <ele>429.4</ele>
        <time>2016-07-18T05:42:01Z</time>
      </trkpt>
      <trkpt lat="42.91149" lon="-8.02544">
        <ele>429</ele>
        <time>2016-07-18T05:42:42Z</time>
      </trkpt>
      <trkpt lat="42.91158" lon="-8.02544">
        <ele>428.2</ele>
        <time>2016-07-18T05:43:11Z</time>
      </trkpt>
      <trkpt lat="42.91158" lon="-8.02531">
        <ele>428.4</ele>
        <time>2016-07-18T05:43:25Z</time>
      </trkpt>
      <trkpt lat="42.91152" lon="-8.02522">
        <ele>428.9</ele>
        <time>2016-07-18T05:43:38Z</time>
      </trkpt>
      <trkpt lat="42.91145" lon="-8.02529">
        <ele>429</ele>
        <time>2016-07-18T05:44:08Z</time>
      </trkpt>
      <trkpt lat="42.91136" lon="-8.02534">
        <ele>428.3</ele>
        <time>2016-07-18T05:47:07Z</time>
      </trkpt>
      <trkpt lat="42.91133" lon="-8.02546">
        <ele>428.8</ele>
        <time>2016-07-18T05:48:02Z</time>
      </trkpt>
      <trkpt lat="42.91138" lon="-8.02534">
        <ele>428.8</ele>
        <time>2016-07-18T05:48:43Z</time>
      </trkpt>
      <trkpt lat="42.91139" lon="-8.02522">
        <ele>429</ele>
        <time>2016-07-18T05:48:55Z</time>
      </trkpt>
      <trkpt lat="42.91138" lon="-8.02534">
        <ele>428.9</ele>
        <time>2016-07-18T05:49:14Z</time>
      </trkpt>
      <trkpt lat="42.91141" lon="-8.02546">
        <ele>428.5</ele>
        <time>2016-07-18T05:49:24Z</time>
      </trkpt>
      <trkpt lat="42.91146" lon="-8.02557">
        <ele>428</ele>
        <time>2016-07-18T05:49:33Z</time>
      </trkpt>
      <trkpt lat="42.9115" lon="-8.02568">
        <ele>427.5</ele>
        <time>2016-07-18T05:49:42Z</time>
      </trkpt>
      <trkpt lat="42.91153" lon="-8.02581">
        <ele>427.2</ele>
        <time>2016-07-18T05:49:50Z</time>
      </trkpt>
      <trkpt lat="42.91155" lon="-8.02594">
        <ele>427.1</ele>
        <time>2016-07-18T05:49:59Z</time>
      </trkpt>
      <trkpt lat="42.91157" lon="-8.02607">
        <ele>426.2</ele>
        <time>2016-07-18T05:50:09Z</time>
      </trkpt>
      <trkpt lat="42.91161" lon="-8.02619">
        <ele>425.8</ele>
        <time>2016-07-18T05:50:18Z</time>
      </trkpt>
      <trkpt lat="42.91164" lon="-8.02631">
        <ele>425.5</ele>
        <time>2016-07-18T05:50:26Z</time>
      </trkpt>
      <trkpt lat="42.91167" lon="-8.02644">
        <ele>425.2</ele>
        <time>2016-07-18T05:50:33Z</time>
      </trkpt>
      <trkpt lat="42.9117" lon="-8.02657">
        <ele>424.4</ele>
        <time>2016-07-18T05:50:41Z</time>
      </trkpt>
      <trkpt lat="42.91175" lon="-8.02668">
        <ele>423.8</ele>
        <time>2016-07-18T05:50:48Z</time>
      </trkpt>
      <trkpt lat="42.9118" lon="-8.02679">
        <ele>423.4</ele>
        <time>2016-07-18T05:50:55Z</time>
      </trkpt>
      <trkpt lat="42.91185" lon="-8.02691">
        <ele>423.1</ele>
        <time>2016-07-18T05:51:03Z</time>
      </trkpt>
      <trkpt lat="42.9119" lon="-8.02703">
        <ele>422.3</ele>
        <time>2016-07-18T05:51:12Z</time>
      </trkpt>
      <trkpt lat="42.91195" lon="-8.02714">
        <ele>421.6</ele>
        <time>2016-07-18T05:51:22Z</time>
      </trkpt>
      <trkpt lat="42.91198" lon="-8.02727">
        <ele>421.4</ele>
        <time>2016-07-18T05:51:32Z</time>
      </trkpt>
      <trkpt lat="42.912" lon="-8.0274">
        <ele>421.4</ele>
        <time>2016-07-18T05:51:40Z</time>
      </trkpt>
      <trkpt lat="42.91201" lon="-8.02753">
        <ele>421.6</ele>
        <time>2016-07-18T05:51:48Z</time>
      </trkpt>
      <trkpt lat="42.912" lon="-8.02766">
        <ele>421.4</ele>
        <time>2016-07-18T05:51:56Z</time>
      </trkpt>
      <trkpt lat="42.912" lon="-8.02778">
        <ele>421.2</ele>
        <time>2016-07-18T05:52:04Z</time>
      </trkpt>
      <trkpt lat="42.91201" lon="-8.0279">
        <ele>421.2</ele>
        <time>2016-07-18T05:52:13Z</time>
      </trkpt>
      <trkpt lat="42.91204" lon="-8.02802">
        <ele>421.4</ele>
        <time>2016-07-18T05:52:21Z</time>
      </trkpt>
      <trkpt lat="42.91205" lon="-8.02815">
        <ele>421.5</ele>
        <time>2016-07-18T05:52:29Z</time>
      </trkpt>
      <trkpt lat="42.91207" lon="-8.02829">
        <ele>421.6</ele>
        <time>2016-07-18T05:52:38Z</time>
      </trkpt>
      <trkpt lat="42.9121" lon="-8.0284">
        <ele>422.1</ele>
        <time>2016-07-18T05:52:46Z</time>
      </trkpt>
      <trkpt lat="42.9121" lon="-8.02854">
        <ele>422.2</ele>
        <time>2016-07-18T05:52:54Z</time>
      </trkpt>
      <trkpt lat="42.91211" lon="-8.02866">
        <ele>422</ele>
        <time>2016-07-18T05:53:02Z</time>
      </trkpt>
      <trkpt lat="42.91213" lon="-8.02879">
        <ele>422.5</ele>
        <time>2016-07-18T05:53:10Z</time>
      </trkpt>
      <trkpt lat="42.91216" lon="-8.02893">
        <ele>422.8</ele>
        <time>2016-07-18T05:53:18Z</time>
      </trkpt>
      <trkpt lat="42.91218" lon="-8.02906">
        <ele>422.9</ele>
        <time>2016-07-18T05:53:26Z</time>
      </trkpt>
      <trkpt lat="42.91219" lon="-8.02919">
        <ele>423.2</ele>
        <time>2016-07-18T05:53:34Z</time>
      </trkpt>
      <trkpt lat="42.9122" lon="-8.02932">
        <ele>423.6</ele>
        <time>2016-07-18T05:53:43Z</time>
      </trkpt>
      <trkpt lat="42.9122" lon="-8.02946">
        <ele>423.9</ele>
        <time>2016-07-18T05:53:52Z</time>
      </trkpt>
      <trkpt lat="42.9122" lon="-8.02959">
        <ele>424</ele>
        <time>2016-07-18T05:54:01Z</time>
      </trkpt>
      <trkpt lat="42.9122" lon="-8.02971">
        <ele>424.1</ele>
        <time>2016-07-18T05:54:09Z</time>
      </trkpt>
      <trkpt lat="42.91219" lon="-8.02985">
        <ele>424.3</ele>
        <time>2016-07-18T05:54:18Z</time>
      </trkpt>
      <trkpt lat="42.91218" lon="-8.02999">
        <ele>424.4</ele>
        <time>2016-07-18T05:54:27Z</time>
      </trkpt>
      <trkpt lat="42.91218" lon="-8.03013">
        <ele>424.1</ele>
        <time>2016-07-18T05:54:36Z</time>
      </trkpt>
      <trkpt lat="42.91218" lon="-8.03025">
        <ele>423.9</ele>
        <time>2016-07-18T05:54:43Z</time>
      </trkpt>
      <trkpt lat="42.91219" lon="-8.03039">
        <ele>423.6</ele>
        <time>2016-07-18T05:54:52Z</time>
      </trkpt>
      <trkpt lat="42.91218" lon="-8.03052">
        <ele>423.5</ele>
        <time>2016-07-18T05:55:01Z</time>
      </trkpt>
      <trkpt lat="42.91216" lon="-8.03064">
        <ele>423.5</ele>
        <time>2016-07-18T05:55:09Z</time>
      </trkpt>
      <trkpt lat="42.91215" lon="-8.03078">
        <ele>423.2</ele>
        <time>2016-07-18T05:55:19Z</time>
      </trkpt>
      <trkpt lat="42.91214" lon="-8.03091">
        <ele>422.8</ele>
        <time>2016-07-18T05:55:28Z</time>
      </trkpt>
      <trkpt lat="42.91212" lon="-8.03104">
        <ele>422.6</ele>
        <time>2016-07-18T05:55:36Z</time>
      </trkpt>
      <trkpt lat="42.91209" lon="-8.03117">
        <ele>422.1</ele>
        <time>2016-07-18T05:55:44Z</time>
      </trkpt>
      <trkpt lat="42.91207" lon="-8.0313">
        <ele>422.3</ele>
        <time>2016-07-18T05:55:52Z</time>
      </trkpt>
      <trkpt lat="42.91205" lon="-8.03143">
        <ele>422.4</ele>
        <time>2016-07-18T05:56:00Z</time>
      </trkpt>
      <trkpt lat="42.91201" lon="-8.03154">
        <ele>422.1</ele>
        <time>2016-07-18T05:56:07Z</time>
      </trkpt>
      <trkpt lat="42.91198" lon="-8.03167">
        <ele>422.1</ele>
        <time>2016-07-18T05:56:15Z</time>
      </trkpt>
      <trkpt lat="42.91197" lon="-8.0318">
        <ele>422</ele>
        <time>2016-07-18T05:56:23Z</time>
      </trkpt>
      <trkpt lat="42.91198" lon="-8.03193">
        <ele>421.9</ele>
        <time>2016-07-18T05:56:31Z</time>
      </trkpt>
      <trkpt lat="42.912" lon="-8.03207">
        <ele>421.9</ele>
        <time>2016-07-18T05:56:40Z</time>
      </trkpt>
      <trkpt lat="42.91203" lon="-8.0322">
        <ele>421.9</ele>
        <time>2016-07-18T05:56:48Z</time>
      </trkpt>
      <trkpt lat="42.91204" lon="-8.03232">
        <ele>422.2</ele>
        <time>2016-07-18T05:56:56Z</time>
      </trkpt>
      <trkpt lat="42.91203" lon="-8.03244">
        <ele>422.7</ele>
        <time>2016-07-18T05:57:05Z</time>
      </trkpt>
      <trkpt lat="42.91199" lon="-8.03257">
        <ele>423.3</ele>
        <time>2016-07-18T05:57:15Z</time>
      </trkpt>
      <trkpt lat="42.91197" lon="-8.03269">
        <ele>423.6</ele>
        <time>2016-07-18T05:57:24Z</time>
      </trkpt>
      <trkpt lat="42.91197" lon="-8.03283">
        <ele>423.8</ele>
        <time>2016-07-18T05:57:33Z</time>
      </trkpt>
      <trkpt lat="42.91197" lon="-8.03295">
        <ele>424.5</ele>
        <time>2016-07-18T05:57:42Z</time>
      </trkpt>
      <trkpt lat="42.91198" lon="-8.03308">
        <ele>425.2</ele>
        <time>2016-07-18T05:57:51Z</time>
      </trkpt>
      <trkpt lat="42.91198" lon="-8.03321">
        <ele>425.8</ele>
        <time>2016-07-18T05:58:00Z</time>
      </trkpt>
      <trkpt lat="42.91199" lon="-8.03334">
        <ele>426.1</ele>
        <time>2016-07-18T05:58:09Z</time>
      </trkpt>
      <trkpt lat="42.91199" lon="-8.03347">
        <ele>426.6</ele>
        <time>2016-07-18T05:58:17Z</time>
      </trkpt>
      <trkpt lat="42.912" lon="-8.0336">
        <ele>427.1</ele>
        <time>2016-07-18T05:58:25Z</time>
      </trkpt>
      <trkpt lat="42.912" lon="-8.03373">
        <ele>427.5</ele>
        <time>2016-07-18T05:58:34Z</time>
      </trkpt>
      <trkpt lat="42.91201" lon="-8.03386">
        <ele>427.5</ele>
        <time>2016-07-18T05:58:43Z</time>
      </trkpt>
      <trkpt lat="42.91204" lon="-8.03398">
        <ele>428.1</ele>
        <time>2016-07-18T05:58:52Z</time>
      </trkpt>
      <trkpt lat="42.91207" lon="-8.03411">
        <ele>428.5</ele>
        <time>2016-07-18T05:59:01Z</time>
      </trkpt>
      <trkpt lat="42.91209" lon="-8.03423">
        <ele>428.6</ele>
        <time>2016-07-18T05:59:09Z</time>
      </trkpt>
      <trkpt lat="42.91212" lon="-8.03435">
        <ele>429.2</ele>
        <time>2016-07-18T05:59:17Z</time>
      </trkpt>
      <trkpt lat="42.91215" lon="-8.03448">
        <ele>429.7</ele>
        <time>2016-07-18T05:59:26Z</time>
      </trkpt>
      <trkpt lat="42.91218" lon="-8.03459">
        <ele>430.1</ele>
        <time>2016-07-18T05:59:35Z</time>
      </trkpt>
      <trkpt lat="42.91221" lon="-8.03472">
        <ele>430.5</ele>
        <time>2016-07-18T05:59:44Z</time>
      </trkpt>
      <trkpt lat="42.91225" lon="-8.03485">
        <ele>430.7</ele>
        <time>2016-07-18T05:59:52Z</time>
      </trkpt>
      <trkpt lat="42.91228" lon="-8.03497">
        <ele>431</ele>
        <time>2016-07-18T05:59:59Z</time>
      </trkpt>
      <trkpt lat="42.9123" lon="-8.0351">
        <ele>431.5</ele>
        <time>2016-07-18T06:00:07Z</time>
      </trkpt>
      <trkpt lat="42.91234" lon="-8.03522">
        <ele>431.7</ele>
        <time>2016-07-18T06:00:16Z</time>
      </trkpt>
      <trkpt lat="42.91237" lon="-8.03534">
        <ele>431.5</ele>
        <time>2016-07-18T06:00:29Z</time>
      </trkpt>
      <trkpt lat="42.91242" lon="-8.03545">
        <ele>431.3</ele>
        <time>2016-07-18T06:00:38Z</time>
      </trkpt>
      <trkpt lat="42.91246" lon="-8.03557">
        <ele>431.1</ele>
        <time>2016-07-18T06:00:45Z</time>
      </trkpt>
      <trkpt lat="42.9125" lon="-8.03569">
        <ele>431</ele>
        <time>2016-07-18T06:00:53Z</time>
      </trkpt>
      <trkpt lat="42.91253" lon="-8.03582">
        <ele>431.4</ele>
        <time>2016-07-18T06:01:01Z</time>
      </trkpt>
      <trkpt lat="42.91255" lon="-8.03594">
        <ele>431.5</ele>
        <time>2016-07-18T06:01:08Z</time>
      </trkpt>
      <trkpt lat="42.91256" lon="-8.03607">
        <ele>431.7</ele>
        <time>2016-07-18T06:01:15Z</time>
      </trkpt>
      <trkpt lat="42.91255" lon="-8.03622">
        <ele>431.7</ele>
        <time>2016-07-18T06:01:23Z</time>
      </trkpt>
      <trkpt lat="42.91254" lon="-8.03635">
        <ele>431.4</ele>
        <time>2016-07-18T06:01:31Z</time>
      </trkpt>
      <trkpt lat="42.91252" lon="-8.03648">
        <ele>431.3</ele>
        <time>2016-07-18T06:01:38Z</time>
      </trkpt>
      <trkpt lat="42.91253" lon="-8.0366">
        <ele>431.4</ele>
        <time>2016-07-18T06:01:46Z</time>
      </trkpt>
      <trkpt lat="42.91254" lon="-8.03673">
        <ele>431</ele>
        <time>2016-07-18T06:01:54Z</time>
      </trkpt>
      <trkpt lat="42.91256" lon="-8.03686">
        <ele>430.8</ele>
        <time>2016-07-18T06:02:02Z</time>
      </trkpt>
      <trkpt lat="42.91258" lon="-8.03699">
        <ele>430.7</ele>
        <time>2016-07-18T06:02:10Z</time>
      </trkpt>
      <trkpt lat="42.91261" lon="-8.03711">
        <ele>430.4</ele>
        <time>2016-07-18T06:02:18Z</time>
      </trkpt>
      <trkpt lat="42.91265" lon="-8.03723">
        <ele>430.4</ele>
        <time>2016-07-18T06:02:26Z</time>
      </trkpt>
      <trkpt lat="42.91269" lon="-8.03735">
        <ele>430.4</ele>
        <time>2016-07-18T06:02:35Z</time>
      </trkpt>
      <trkpt lat="42.91274" lon="-8.03746">
        <ele>430.2</ele>
        <time>2016-07-18T06:02:43Z</time>
      </trkpt>
      <trkpt lat="42.9128" lon="-8.03757">
        <ele>429.8</ele>
        <time>2016-07-18T06:02:52Z</time>
      </trkpt>
      <trkpt lat="42.91286" lon="-8.03767">
        <ele>429.8</ele>
        <time>2016-07-18T06:03:01Z</time>
      </trkpt>
      <trkpt lat="42.91291" lon="-8.03779">
        <ele>429.8</ele>
        <time>2016-07-18T06:03:10Z</time>
      </trkpt>
      <trkpt lat="42.91296" lon="-8.03789">
        <ele>430</ele>
        <time>2016-07-18T06:03:18Z</time>
      </trkpt>
      <trkpt lat="42.91301" lon="-8.038">
        <ele>430</ele>
        <time>2016-07-18T06:03:29Z</time>
      </trkpt>
      <trkpt lat="42.91303" lon="-8.03812">
        <ele>430.4</ele>
        <time>2016-07-18T06:03:42Z</time>
      </trkpt>
      <trkpt lat="42.91308" lon="-8.03824">
        <ele>431.2</ele>
        <time>2016-07-18T06:03:52Z</time>
      </trkpt>
      <trkpt lat="42.91311" lon="-8.03836">
        <ele>432</ele>
        <time>2016-07-18T06:04:01Z</time>
      </trkpt>
      <trkpt lat="42.91314" lon="-8.03848">
        <ele>432.6</ele>
        <time>2016-07-18T06:04:09Z</time>
      </trkpt>
      <trkpt lat="42.91319" lon="-8.03859">
        <ele>433.5</ele>
        <time>2016-07-18T06:04:18Z</time>
      </trkpt>
      <trkpt lat="42.91323" lon="-8.0387">
        <ele>434.1</ele>
        <time>2016-07-18T06:04:27Z</time>
      </trkpt>
      <trkpt lat="42.91329" lon="-8.0388">
        <ele>434.4</ele>
        <time>2016-07-18T06:04:35Z</time>
      </trkpt>
      <trkpt lat="42.91335" lon="-8.03891">
        <ele>434.6</ele>
        <time>2016-07-18T06:04:44Z</time>
      </trkpt>
      <trkpt lat="42.91341" lon="-8.03902">
        <ele>434.7</ele>
        <time>2016-07-18T06:04:52Z</time>
      </trkpt>
      <trkpt lat="42.91346" lon="-8.03913">
        <ele>434.2</ele>
        <time>2016-07-18T06:05:00Z</time>
      </trkpt>
      <trkpt lat="42.91351" lon="-8.03923">
        <ele>433.8</ele>
        <time>2016-07-18T06:05:08Z</time>
      </trkpt>
      <trkpt lat="42.91358" lon="-8.03933">
        <ele>433.5</ele>
        <time>2016-07-18T06:05:16Z</time>
      </trkpt>
      <trkpt lat="42.91367" lon="-8.0394">
        <ele>433</ele>
        <time>2016-07-18T06:05:24Z</time>
      </trkpt>
      <trkpt lat="42.91376" lon="-8.03946">
        <ele>432.7</ele>
        <time>2016-07-18T06:05:32Z</time>
      </trkpt>
      <trkpt lat="42.91383" lon="-8.03953">
        <ele>432.3</ele>
        <time>2016-07-18T06:05:39Z</time>
      </trkpt>
      <trkpt lat="42.9139" lon="-8.03962">
        <ele>432</ele>
        <time>2016-07-18T06:05:46Z</time>
      </trkpt>
      <trkpt lat="42.91397" lon="-8.03969">
        <ele>431.6</ele>
        <time>2016-07-18T06:05:53Z</time>
      </trkpt>
      <trkpt lat="42.91405" lon="-8.03977">
        <ele>431.4</ele>
        <time>2016-07-18T06:06:01Z</time>
      </trkpt>
      <trkpt lat="42.91411" lon="-8.03987">
        <ele>431.3</ele>
        <time>2016-07-18T06:06:09Z</time>
      </trkpt>
      <trkpt lat="42.91419" lon="-8.03995">
        <ele>430.8</ele>
        <time>2016-07-18T06:06:17Z</time>
      </trkpt>
      <trkpt lat="42.91425" lon="-8.04005">
        <ele>430.3</ele>
        <time>2016-07-18T06:06:26Z</time>
      </trkpt>
      <trkpt lat="42.91433" lon="-8.04013">
        <ele>429.8</ele>
        <time>2016-07-18T06:06:35Z</time>
      </trkpt>
      <trkpt lat="42.91441" lon="-8.0402">
        <ele>429.5</ele>
        <time>2016-07-18T06:06:44Z</time>
      </trkpt>
      <trkpt lat="42.91449" lon="-8.04027">
        <ele>429.3</ele>
        <time>2016-07-18T06:06:52Z</time>
      </trkpt>
      <trkpt lat="42.91457" lon="-8.04034">
        <ele>428.8</ele>
        <time>2016-07-18T06:07:00Z</time>
      </trkpt>
      <trkpt lat="42.91464" lon="-8.04042">
        <ele>428.1</ele>
        <time>2016-07-18T06:07:10Z</time>
      </trkpt>
      <trkpt lat="42.91471" lon="-8.0405">
        <ele>427.8</ele>
        <time>2016-07-18T06:07:19Z</time>
      </trkpt>
      <trkpt lat="42.91479" lon="-8.04059">
        <ele>427.7</ele>
        <time>2016-07-18T06:07:28Z</time>
      </trkpt>
      <trkpt lat="42.91486" lon="-8.04068">
        <ele>427.1</ele>
        <time>2016-07-18T06:07:35Z</time>
      </trkpt>
      <trkpt lat="42.91492" lon="-8.04078">
        <ele>425.7</ele>
        <time>2016-07-18T06:07:43Z</time>
      </trkpt>
      <trkpt lat="42.91499" lon="-8.04088">
        <ele>424.8</ele>
        <time>2016-07-18T06:07:51Z</time>
      </trkpt>
      <trkpt lat="42.91503" lon="-8.04099">
        <ele>424.1</ele>
        <time>2016-07-18T06:08:00Z</time>
      </trkpt>
      <trkpt lat="42.91508" lon="-8.0411">
        <ele>423.1</ele>
        <time>2016-07-18T06:08:09Z</time>
      </trkpt>
      <trkpt lat="42.91514" lon="-8.04122">
        <ele>421.8</ele>
        <time>2016-07-18T06:08:19Z</time>
      </trkpt>
      <trkpt lat="42.91519" lon="-8.04134">
        <ele>420.9</ele>
        <time>2016-07-18T06:08:27Z</time>
      </trkpt>
      <trkpt lat="42.91522" lon="-8.04146">
        <ele>420.1</ele>
        <time>2016-07-18T06:08:35Z</time>
      </trkpt>
      <trkpt lat="42.91522" lon="-8.04159">
        <ele>419.5</ele>
        <time>2016-07-18T06:08:42Z</time>
      </trkpt>
      <trkpt lat="42.91526" lon="-8.0417">
        <ele>418.6</ele>
        <time>2016-07-18T06:08:52Z</time>
      </trkpt>
      <trkpt lat="42.91534" lon="-8.04177">
        <ele>416.2</ele>
        <time>2016-07-18T06:09:08Z</time>
      </trkpt>
      <trkpt lat="42.91534" lon="-8.04189">
        <ele>416.1</ele>
        <time>2016-07-18T06:10:14Z</time>
      </trkpt>
      <trkpt lat="42.9154" lon="-8.042">
        <ele>416.8</ele>
        <time>2016-07-18T06:10:31Z</time>
      </trkpt>
      <trkpt lat="42.91547" lon="-8.04208">
        <ele>417.7</ele>
        <time>2016-07-18T06:10:42Z</time>
      </trkpt>
      <trkpt lat="42.91556" lon="-8.04214">
        <ele>419.3</ele>
        <time>2016-07-18T06:10:52Z</time>
      </trkpt>
      <trkpt lat="42.91564" lon="-8.04219">
        <ele>420.9</ele>
        <time>2016-07-18T06:11:00Z</time>
      </trkpt>
      <trkpt lat="42.91572" lon="-8.04225">
        <ele>423.2</ele>
        <time>2016-07-18T06:11:17Z</time>
      </trkpt>
      <trkpt lat="42.91581" lon="-8.04232">
        <ele>424</ele>
        <time>2016-07-18T06:11:35Z</time>
      </trkpt>
      <trkpt lat="42.91589" lon="-8.04237">
        <ele>424.2</ele>
        <time>2016-07-18T06:11:45Z</time>
      </trkpt>
      <trkpt lat="42.91598" lon="-8.04241">
        <ele>424.4</ele>
        <time>2016-07-18T06:11:54Z</time>
      </trkpt>
      <trkpt lat="42.91606" lon="-8.04249">
        <ele>424.8</ele>
        <time>2016-07-18T06:12:04Z</time>
      </trkpt>
      <trkpt lat="42.91614" lon="-8.04256">
        <ele>425.6</ele>
        <time>2016-07-18T06:12:13Z</time>
      </trkpt>
      <trkpt lat="42.91618" lon="-8.04269">
        <ele>426.2</ele>
        <time>2016-07-18T06:12:22Z</time>
      </trkpt>
      <trkpt lat="42.91617" lon="-8.04281">
        <ele>426.9</ele>
        <time>2016-07-18T06:12:32Z</time>
      </trkpt>
      <trkpt lat="42.91617" lon="-8.04294">
        <ele>427.3</ele>
        <time>2016-07-18T06:12:40Z</time>
      </trkpt>
      <trkpt lat="42.91619" lon="-8.04307">
        <ele>427.8</ele>
        <time>2016-07-18T06:12:48Z</time>
      </trkpt>
      <trkpt lat="42.91622" lon="-8.04319">
        <ele>428.1</ele>
        <time>2016-07-18T06:12:56Z</time>
      </trkpt>
      <trkpt lat="42.91622" lon="-8.04331">
        <ele>428.6</ele>
        <time>2016-07-18T06:13:05Z</time>
      </trkpt>
      <trkpt lat="42.91623" lon="-8.04345">
        <ele>429.8</ele>
        <time>2016-07-18T06:13:16Z</time>
      </trkpt>
      <trkpt lat="42.91624" lon="-8.04359">
        <ele>430.7</ele>
        <time>2016-07-18T06:13:25Z</time>
      </trkpt>
      <trkpt lat="42.91624" lon="-8.04371">
        <ele>431.9</ele>
        <time>2016-07-18T06:13:33Z</time>
      </trkpt>
      <trkpt lat="42.91626" lon="-8.04385">
        <ele>432.8</ele>
        <time>2016-07-18T06:13:41Z</time>
      </trkpt>
      <trkpt lat="42.91628" lon="-8.04397">
        <ele>434.1</ele>
        <time>2016-07-18T06:13:50Z</time>
      </trkpt>
      <trkpt lat="42.91628" lon="-8.04411">
        <ele>435</ele>
        <time>2016-07-18T06:13:58Z</time>
      </trkpt>
      <trkpt lat="42.9163" lon="-8.04424">
        <ele>436</ele>
        <time>2016-07-18T06:14:08Z</time>
      </trkpt>
      <trkpt lat="42.91629" lon="-8.04437">
        <ele>437.5</ele>
        <time>2016-07-18T06:14:17Z</time>
      </trkpt>
      <trkpt lat="42.9163" lon="-8.0445">
        <ele>438.8</ele>
        <time>2016-07-18T06:14:28Z</time>
      </trkpt>
      <trkpt lat="42.91626" lon="-8.04462">
        <ele>440.4</ele>
        <time>2016-07-18T06:14:39Z</time>
      </trkpt>
      <trkpt lat="42.91624" lon="-8.04474">
        <ele>441.5</ele>
        <time>2016-07-18T06:14:51Z</time>
      </trkpt>
      <trkpt lat="42.91624" lon="-8.04488">
        <ele>442.9</ele>
        <time>2016-07-18T06:15:02Z</time>
      </trkpt>
      <trkpt lat="42.91623" lon="-8.04501">
        <ele>443.9</ele>
        <time>2016-07-18T06:15:11Z</time>
      </trkpt>
      <trkpt lat="42.91622" lon="-8.04515">
        <ele>444.7</ele>
        <time>2016-07-18T06:15:20Z</time>
      </trkpt>
      <trkpt lat="42.91621" lon="-8.04528">
        <ele>445.3</ele>
        <time>2016-07-18T06:15:29Z</time>
      </trkpt>
      <trkpt lat="42.9162" lon="-8.0454">
        <ele>446</ele>
        <time>2016-07-18T06:15:38Z</time>
      </trkpt>
      <trkpt lat="42.9162" lon="-8.04553">
        <ele>447</ele>
        <time>2016-07-18T06:15:49Z</time>
      </trkpt>
      <trkpt lat="42.91617" lon="-8.04566">
        <ele>448</ele>
        <time>2016-07-18T06:15:59Z</time>
      </trkpt>
      <trkpt lat="42.91612" lon="-8.04577">
        <ele>448.8</ele>
        <time>2016-07-18T06:16:08Z</time>
      </trkpt>
      <trkpt lat="42.91608" lon="-8.04589">
        <ele>449.4</ele>
        <time>2016-07-18T06:16:17Z</time>
      </trkpt>
      <trkpt lat="42.91605" lon="-8.04601">
        <ele>449.6</ele>
        <time>2016-07-18T06:16:25Z</time>
      </trkpt>
      <trkpt lat="42.91601" lon="-8.04613">
        <ele>449.9</ele>
        <time>2016-07-18T06:16:33Z</time>
      </trkpt>
      <trkpt lat="42.91598" lon="-8.04626">
        <ele>450.2</ele>
        <time>2016-07-18T06:16:41Z</time>
      </trkpt>
      <trkpt lat="42.91599" lon="-8.04638">
        <ele>450.4</ele>
        <time>2016-07-18T06:16:48Z</time>
      </trkpt>
      <trkpt lat="42.91602" lon="-8.04651">
        <ele>450.7</ele>
        <time>2016-07-18T06:16:56Z</time>
      </trkpt>
      <trkpt lat="42.91605" lon="-8.04662">
        <ele>450.9</ele>
        <time>2016-07-18T06:17:04Z</time>
      </trkpt>
      <trkpt lat="42.91611" lon="-8.04674">
        <ele>451</ele>
        <time>2016-07-18T06:17:12Z</time>
      </trkpt>
      <trkpt lat="42.91616" lon="-8.04684">
        <ele>451.1</ele>
        <time>2016-07-18T06:17:20Z</time>
      </trkpt>
      <trkpt lat="42.91622" lon="-8.04694">
        <ele>452.2</ele>
        <time>2016-07-18T06:17:35Z</time>
      </trkpt>
      <trkpt lat="42.91627" lon="-8.04705">
        <ele>451.3</ele>
        <time>2016-07-18T06:19:05Z</time>
      </trkpt>
      <trkpt lat="42.91635" lon="-8.04714">
        <ele>451.3</ele>
        <time>2016-07-18T06:19:12Z</time>
      </trkpt>
      <trkpt lat="42.91642" lon="-8.04723">
        <ele>451.4</ele>
        <time>2016-07-18T06:19:20Z</time>
      </trkpt>
      <trkpt lat="42.91648" lon="-8.04733">
        <ele>452.1</ele>
        <time>2016-07-18T06:19:48Z</time>
      </trkpt>
      <trkpt lat="42.91654" lon="-8.04744">
        <ele>452.3</ele>
        <time>2016-07-18T06:19:57Z</time>
      </trkpt>
      <trkpt lat="42.91659" lon="-8.04755">
        <ele>452.7</ele>
        <time>2016-07-18T06:20:06Z</time>
      </trkpt>
      <trkpt lat="42.91664" lon="-8.04766">
        <ele>453.1</ele>
        <time>2016-07-18T06:20:14Z</time>
      </trkpt>
      <trkpt lat="42.91669" lon="-8.04778">
        <ele>453.6</ele>
        <time>2016-07-18T06:20:22Z</time>
      </trkpt>
      <trkpt lat="42.91672" lon="-8.0479">
        <ele>454.2</ele>
        <time>2016-07-18T06:20:30Z</time>
      </trkpt>
      <trkpt lat="42.91674" lon="-8.04803">
        <ele>454.5</ele>
        <time>2016-07-18T06:20:39Z</time>
      </trkpt>
      <trkpt lat="42.91674" lon="-8.04816">
        <ele>454.9</ele>
        <time>2016-07-18T06:20:48Z</time>
      </trkpt>
      <trkpt lat="42.91673" lon="-8.04829">
        <ele>455.7</ele>
        <time>2016-07-18T06:20:57Z</time>
      </trkpt>
      <trkpt lat="42.91668" lon="-8.04841">
        <ele>456.1</ele>
        <time>2016-07-18T06:21:06Z</time>
      </trkpt>
      <trkpt lat="42.91663" lon="-8.04852">
        <ele>456.5</ele>
        <time>2016-07-18T06:21:14Z</time>
      </trkpt>
      <trkpt lat="42.91658" lon="-8.04864">
        <ele>456.7</ele>
        <time>2016-07-18T06:21:22Z</time>
      </trkpt>
      <trkpt lat="42.91657" lon="-8.04877">
        <ele>456.6</ele>
        <time>2016-07-18T06:21:29Z</time>
      </trkpt>
      <trkpt lat="42.91663" lon="-8.04887">
        <ele>456.7</ele>
        <time>2016-07-18T06:21:38Z</time>
      </trkpt>
      <trkpt lat="42.91671" lon="-8.04894">
        <ele>456.4</ele>
        <time>2016-07-18T06:21:46Z</time>
      </trkpt>
      <trkpt lat="42.91679" lon="-8.04903">
        <ele>456.5</ele>
        <time>2016-07-18T06:21:54Z</time>
      </trkpt>
      <trkpt lat="42.91686" lon="-8.04911">
        <ele>456.8</ele>
        <time>2016-07-18T06:22:02Z</time>
      </trkpt>
      <trkpt lat="42.91694" lon="-8.04918">
        <ele>457</ele>
        <time>2016-07-18T06:22:10Z</time>
      </trkpt>
      <trkpt lat="42.917" lon="-8.04928">
        <ele>457.1</ele>
        <time>2016-07-18T06:22:18Z</time>
      </trkpt>
      <trkpt lat="42.91706" lon="-8.04938">
        <ele>457.2</ele>
        <time>2016-07-18T06:22:28Z</time>
      </trkpt>
      <trkpt lat="42.91712" lon="-8.04947">
        <ele>457.4</ele>
        <time>2016-07-18T06:22:36Z</time>
      </trkpt>
      <trkpt lat="42.91719" lon="-8.04958">
        <ele>457.5</ele>
        <time>2016-07-18T06:22:45Z</time>
      </trkpt>
      <trkpt lat="42.91725" lon="-8.04968">
        <ele>457.7</ele>
        <time>2016-07-18T06:22:53Z</time>
      </trkpt>
      <trkpt lat="42.91732" lon="-8.04977">
        <ele>458</ele>
        <time>2016-07-18T06:23:01Z</time>
      </trkpt>
      <trkpt lat="42.91737" lon="-8.04989">
        <ele>458.4</ele>
        <time>2016-07-18T06:23:10Z</time>
      </trkpt>
      <trkpt lat="42.9174" lon="-8.05001">
        <ele>458.9</ele>
        <time>2016-07-18T06:23:18Z</time>
      </trkpt>
      <trkpt lat="42.91741" lon="-8.05015">
        <ele>459.1</ele>
        <time>2016-07-18T06:23:26Z</time>
      </trkpt>
      <trkpt lat="42.91742" lon="-8.05027">
        <ele>459.1</ele>
        <time>2016-07-18T06:23:34Z</time>
      </trkpt>
      <trkpt lat="42.91744" lon="-8.0504">
        <ele>459.5</ele>
        <time>2016-07-18T06:23:42Z</time>
      </trkpt>
      <trkpt lat="42.91745" lon="-8.05052">
        <ele>459.4</ele>
        <time>2016-07-18T06:23:50Z</time>
      </trkpt>
      <trkpt lat="42.91747" lon="-8.05065">
        <ele>459.5</ele>
        <time>2016-07-18T06:23:58Z</time>
      </trkpt>
      <trkpt lat="42.91748" lon="-8.05079">
        <ele>459.6</ele>
        <time>2016-07-18T06:24:07Z</time>
      </trkpt>
      <trkpt lat="42.9175" lon="-8.05092">
        <ele>460</ele>
        <time>2016-07-18T06:24:18Z</time>
      </trkpt>
      <trkpt lat="42.91752" lon="-8.05105">
        <ele>460.3</ele>
        <time>2016-07-18T06:24:28Z</time>
      </trkpt>
      <trkpt lat="42.91755" lon="-8.05117">
        <ele>461</ele>
        <time>2016-07-18T06:24:36Z</time>
      </trkpt>
      <trkpt lat="42.91757" lon="-8.05129">
        <ele>461.5</ele>
        <time>2016-07-18T06:24:44Z</time>
      </trkpt>
      <trkpt lat="42.9176" lon="-8.05141">
        <ele>461.6</ele>
        <time>2016-07-18T06:24:53Z</time>
      </trkpt>
      <trkpt lat="42.91761" lon="-8.05154">
        <ele>461.9</ele>
        <time>2016-07-18T06:25:01Z</time>
      </trkpt>
      <trkpt lat="42.91757" lon="-8.05165">
        <ele>462.2</ele>
        <time>2016-07-18T06:25:10Z</time>
      </trkpt>
      <trkpt lat="42.91748" lon="-8.05171">
        <ele>462.4</ele>
        <time>2016-07-18T06:25:19Z</time>
      </trkpt>
      <trkpt lat="42.91738" lon="-8.05175">
        <ele>462.4</ele>
        <time>2016-07-18T06:25:29Z</time>
      </trkpt>
      <trkpt lat="42.9173" lon="-8.0518">
        <ele>462.5</ele>
        <time>2016-07-18T06:25:37Z</time>
      </trkpt>
      <trkpt lat="42.91722" lon="-8.05186">
        <ele>462.2</ele>
        <time>2016-07-18T06:25:48Z</time>
      </trkpt>
      <trkpt lat="42.91713" lon="-8.05191">
        <ele>461.8</ele>
        <time>2016-07-18T06:25:58Z</time>
      </trkpt>
      <trkpt lat="42.91705" lon="-8.05199">
        <ele>460.7</ele>
        <time>2016-07-18T06:26:07Z</time>
      </trkpt>
      <trkpt lat="42.91698" lon="-8.05208">
        <ele>461.8</ele>
        <time>2016-07-18T06:26:14Z</time>
      </trkpt>
      <trkpt lat="42.91692" lon="-8.05217">
        <ele>462.2</ele>
        <time>2016-07-18T06:26:21Z</time>
      </trkpt>
      <trkpt lat="42.91686" lon="-8.05228">
        <ele>462</ele>
        <time>2016-07-18T06:26:29Z</time>
      </trkpt>
      <trkpt lat="42.91683" lon="-8.0524">
        <ele>461.9</ele>
        <time>2016-07-18T06:26:36Z</time>
      </trkpt>
      <trkpt lat="42.91678" lon="-8.05251">
        <ele>460.9</ele>
        <time>2016-07-18T06:26:47Z</time>
      </trkpt>
      <trkpt lat="42.91676" lon="-8.05263">
        <ele>461.3</ele>
        <time>2016-07-18T06:26:56Z</time>
      </trkpt>
      <trkpt lat="42.91672" lon="-8.05274">
        <ele>461.2</ele>
        <time>2016-07-18T06:27:04Z</time>
      </trkpt>
      <trkpt lat="42.91668" lon="-8.05287">
        <ele>461.1</ele>
        <time>2016-07-18T06:27:12Z</time>
      </trkpt>
      <trkpt lat="42.91666" lon="-8.05299">
        <ele>461.2</ele>
        <time>2016-07-18T06:27:21Z</time>
      </trkpt>
      <trkpt lat="42.91662" lon="-8.05311">
        <ele>461.6</ele>
        <time>2016-07-18T06:27:30Z</time>
      </trkpt>
      <trkpt lat="42.91658" lon="-8.05323">
        <ele>461.8</ele>
        <time>2016-07-18T06:27:39Z</time>
      </trkpt>
      <trkpt lat="42.91651" lon="-8.05333">
        <ele>462</ele>
        <time>2016-07-18T06:27:48Z</time>
      </trkpt>
      <trkpt lat="42.91646" lon="-8.05343">
        <ele>462.1</ele>
        <time>2016-07-18T06:27:56Z</time>
      </trkpt>
      <trkpt lat="42.91642" lon="-8.05356">
        <ele>462.1</ele>
        <time>2016-07-18T06:28:05Z</time>
      </trkpt>
      <trkpt lat="42.91636" lon="-8.05368">
        <ele>462.2</ele>
        <time>2016-07-18T06:28:14Z</time>
      </trkpt>
      <trkpt lat="42.91632" lon="-8.05379">
        <ele>462.2</ele>
        <time>2016-07-18T06:28:23Z</time>
      </trkpt>
      <trkpt lat="42.91628" lon="-8.05391">
        <ele>462.2</ele>
        <time>2016-07-18T06:28:32Z</time>
      </trkpt>
      <trkpt lat="42.91623" lon="-8.05402">
        <ele>462.4</ele>
        <time>2016-07-18T06:28:41Z</time>
      </trkpt>
      <trkpt lat="42.9162" lon="-8.05414">
        <ele>462.6</ele>
        <time>2016-07-18T06:28:52Z</time>
      </trkpt>
      <trkpt lat="42.91615" lon="-8.05425">
        <ele>462</ele>
        <time>2016-07-18T06:29:13Z</time>
      </trkpt>
      <trkpt lat="42.91611" lon="-8.05436">
        <ele>461.9</ele>
        <time>2016-07-18T06:29:25Z</time>
      </trkpt>
      <trkpt lat="42.91608" lon="-8.05449">
        <ele>462.3</ele>
        <time>2016-07-18T06:29:36Z</time>
      </trkpt>
      <trkpt lat="42.91601" lon="-8.05457">
        <ele>462.8</ele>
        <time>2016-07-18T06:29:45Z</time>
      </trkpt>
      <trkpt lat="42.91596" lon="-8.05468">
        <ele>463</ele>
        <time>2016-07-18T06:29:53Z</time>
      </trkpt>
      <trkpt lat="42.91592" lon="-8.0548">
        <ele>462.8</ele>
        <time>2016-07-18T06:30:01Z</time>
      </trkpt>
      <trkpt lat="42.91588" lon="-8.05492">
        <ele>462.9</ele>
        <time>2016-07-18T06:30:08Z</time>
      </trkpt>
      <trkpt lat="42.91586" lon="-8.05504">
        <ele>462.9</ele>
        <time>2016-07-18T06:30:15Z</time>
      </trkpt>
      <trkpt lat="42.91583" lon="-8.05516">
        <ele>463</ele>
        <time>2016-07-18T06:30:21Z</time>
      </trkpt>
      <trkpt lat="42.9158" lon="-8.0553">
        <ele>463</ele>
        <time>2016-07-18T06:30:28Z</time>
      </trkpt>
      <trkpt lat="42.91576" lon="-8.05543">
        <ele>462.9</ele>
        <time>2016-07-18T06:30:35Z</time>
      </trkpt>
      <trkpt lat="42.91575" lon="-8.05555">
        <ele>462.6</ele>
        <time>2016-07-18T06:30:42Z</time>
      </trkpt>
      <trkpt lat="42.91572" lon="-8.05567">
        <ele>462.6</ele>
        <time>2016-07-18T06:30:49Z</time>
      </trkpt>
      <trkpt lat="42.91569" lon="-8.05581">
        <ele>462.7</ele>
        <time>2016-07-18T06:30:57Z</time>
      </trkpt>
      <trkpt lat="42.91567" lon="-8.05594">
        <ele>463</ele>
        <time>2016-07-18T06:31:05Z</time>
      </trkpt>
      <trkpt lat="42.91565" lon="-8.05606">
        <ele>462.6</ele>
        <time>2016-07-18T06:31:12Z</time>
      </trkpt>
      <trkpt lat="42.91565" lon="-8.05619">
        <ele>462.7</ele>
        <time>2016-07-18T06:31:20Z</time>
      </trkpt>
      <trkpt lat="42.91564" lon="-8.05631">
        <ele>462.9</ele>
        <time>2016-07-18T06:31:28Z</time>
      </trkpt>
      <trkpt lat="42.91564" lon="-8.05644">
        <ele>463</ele>
        <time>2016-07-18T06:31:36Z</time>
      </trkpt>
      <trkpt lat="42.91562" lon="-8.05657">
        <ele>463.3</ele>
        <time>2016-07-18T06:31:44Z</time>
      </trkpt>
      <trkpt lat="42.91557" lon="-8.05667">
        <ele>463.4</ele>
        <time>2016-07-18T06:31:51Z</time>
      </trkpt>
      <trkpt lat="42.91554" lon="-8.0568">
        <ele>462.7</ele>
        <time>2016-07-18T06:31:59Z</time>
      </trkpt>
      <trkpt lat="42.9155" lon="-8.05692">
        <ele>462.4</ele>
        <time>2016-07-18T06:32:06Z</time>
      </trkpt>
      <trkpt lat="42.91547" lon="-8.05705">
        <ele>462.4</ele>
        <time>2016-07-18T06:32:15Z</time>
      </trkpt>
      <trkpt lat="42.91545" lon="-8.05717">
        <ele>462.7</ele>
        <time>2016-07-18T06:32:23Z</time>
      </trkpt>
      <trkpt lat="42.91545" lon="-8.05731">
        <ele>462.1</ele>
        <time>2016-07-18T06:32:32Z</time>
      </trkpt>
      <trkpt lat="42.91545" lon="-8.05743">
        <ele>462</ele>
        <time>2016-07-18T06:32:41Z</time>
      </trkpt>
      <trkpt lat="42.91546" lon="-8.05756">
        <ele>462.1</ele>
        <time>2016-07-18T06:32:50Z</time>
      </trkpt>
      <trkpt lat="42.91545" lon="-8.0577">
        <ele>462</ele>
        <time>2016-07-18T06:32:58Z</time>
      </trkpt>
      <trkpt lat="42.91544" lon="-8.05783">
        <ele>462.1</ele>
        <time>2016-07-18T06:33:06Z</time>
      </trkpt>
      <trkpt lat="42.91543" lon="-8.05796">
        <ele>461.9</ele>
        <time>2016-07-18T06:33:14Z</time>
      </trkpt>
      <trkpt lat="42.91543" lon="-8.05809">
        <ele>461.5</ele>
        <time>2016-07-18T06:33:22Z</time>
      </trkpt>
      <trkpt lat="42.91542" lon="-8.05822">
        <ele>461.3</ele>
        <time>2016-07-18T06:33:30Z</time>
      </trkpt>
      <trkpt lat="42.91542" lon="-8.05834">
        <ele>461.1</ele>
        <time>2016-07-18T06:33:41Z</time>
      </trkpt>
      <trkpt lat="42.91544" lon="-8.05847">
        <ele>460.8</ele>
        <time>2016-07-18T06:33:50Z</time>
      </trkpt>
      <trkpt lat="42.91546" lon="-8.0586">
        <ele>460.7</ele>
        <time>2016-07-18T06:33:59Z</time>
      </trkpt>
      <trkpt lat="42.91548" lon="-8.05872">
        <ele>461.5</ele>
        <time>2016-07-18T06:34:09Z</time>
      </trkpt>
      <trkpt lat="42.91547" lon="-8.05886">
        <ele>461.7</ele>
        <time>2016-07-18T06:34:17Z</time>
      </trkpt>
      <trkpt lat="42.91546" lon="-8.05898">
        <ele>461.6</ele>
        <time>2016-07-18T06:34:24Z</time>
      </trkpt>
      <trkpt lat="42.91545" lon="-8.0591">
        <ele>461.6</ele>
        <time>2016-07-18T06:34:32Z</time>
      </trkpt>
      <trkpt lat="42.91544" lon="-8.05924">
        <ele>461.5</ele>
        <time>2016-07-18T06:34:41Z</time>
      </trkpt>
      <trkpt lat="42.91543" lon="-8.05936">
        <ele>461.5</ele>
        <time>2016-07-18T06:34:51Z</time>
      </trkpt>
      <trkpt lat="42.91544" lon="-8.05949">
        <ele>461.6</ele>
        <time>2016-07-18T06:35:00Z</time>
      </trkpt>
      <trkpt lat="42.91544" lon="-8.05961">
        <ele>461.5</ele>
        <time>2016-07-18T06:35:09Z</time>
      </trkpt>
      <trkpt lat="42.91547" lon="-8.05974">
        <ele>461.1</ele>
        <time>2016-07-18T06:35:17Z</time>
      </trkpt>
      <trkpt lat="42.9155" lon="-8.05986">
        <ele>461.3</ele>
        <time>2016-07-18T06:35:24Z</time>
      </trkpt>
      <trkpt lat="42.91553" lon="-8.05998">
        <ele>461.6</ele>
        <time>2016-07-18T06:35:31Z</time>
      </trkpt>
      <trkpt lat="42.91556" lon="-8.0601">
        <ele>461.8</ele>
        <time>2016-07-18T06:35:38Z</time>
      </trkpt>
      <trkpt lat="42.91559" lon="-8.06022">
        <ele>461.7</ele>
        <time>2016-07-18T06:35:46Z</time>
      </trkpt>
      <trkpt lat="42.91563" lon="-8.06035">
        <ele>461.2</ele>
        <time>2016-07-18T06:35:55Z</time>
      </trkpt>
      <trkpt lat="42.91567" lon="-8.06047">
        <ele>460.7</ele>
        <time>2016-07-18T06:36:03Z</time>
      </trkpt>
      <trkpt lat="42.91571" lon="-8.0606">
        <ele>460.3</ele>
        <time>2016-07-18T06:36:12Z</time>
      </trkpt>
      <trkpt lat="42.91573" lon="-8.06072">
        <ele>460.1</ele>
        <time>2016-07-18T06:36:21Z</time>
      </trkpt>
      <trkpt lat="42.91577" lon="-8.06085">
        <ele>459.4</ele>
        <time>2016-07-18T06:36:30Z</time>
      </trkpt>
      <trkpt lat="42.9158" lon="-8.06098">
        <ele>458.6</ele>
        <time>2016-07-18T06:36:38Z</time>
      </trkpt>
      <trkpt lat="42.91583" lon="-8.06111">
        <ele>457.3</ele>
        <time>2016-07-18T06:36:47Z</time>
      </trkpt>
      <trkpt lat="42.91586" lon="-8.06123">
        <ele>456.4</ele>
        <time>2016-07-18T06:36:57Z</time>
      </trkpt>
      <trkpt lat="42.9159" lon="-8.06134">
        <ele>455.8</ele>
        <time>2016-07-18T06:37:05Z</time>
      </trkpt>
      <trkpt lat="42.91594" lon="-8.06146">
        <ele>454.8</ele>
        <time>2016-07-18T06:37:15Z</time>
      </trkpt>
      <trkpt lat="42.91599" lon="-8.06157">
        <ele>454</ele>
        <time>2016-07-18T06:37:24Z</time>
      </trkpt>
      <trkpt lat="42.91604" lon="-8.06168">
        <ele>453.1</ele>
        <time>2016-07-18T06:37:32Z</time>
      </trkpt>
      <trkpt lat="42.91611" lon="-8.06178">
        <ele>452.4</ele>
        <time>2016-07-18T06:37:41Z</time>
      </trkpt>
      <trkpt lat="42.91615" lon="-8.06189">
        <ele>452</ele>
        <time>2016-07-18T06:37:50Z</time>
      </trkpt>
      <trkpt lat="42.91617" lon="-8.06201">
        <ele>451.6</ele>
        <time>2016-07-18T06:37:58Z</time>
      </trkpt>
      <trkpt lat="42.9162" lon="-8.06214">
        <ele>451.2</ele>
        <time>2016-07-18T06:38:06Z</time>
      </trkpt>
      <trkpt lat="42.91625" lon="-8.06226">
        <ele>450.5</ele>
        <time>2016-07-18T06:38:14Z</time>
      </trkpt>
      <trkpt lat="42.91629" lon="-8.06238">
        <ele>449.6</ele>
        <time>2016-07-18T06:38:23Z</time>
      </trkpt>
      <trkpt lat="42.91632" lon="-8.06251">
        <ele>448.9</ele>
        <time>2016-07-18T06:38:31Z</time>
      </trkpt>
      <trkpt lat="42.91635" lon="-8.06263">
        <ele>447.9</ele>
        <time>2016-07-18T06:38:39Z</time>
      </trkpt>
      <trkpt lat="42.91638" lon="-8.06276">
        <ele>447.1</ele>
        <time>2016-07-18T06:38:47Z</time>
      </trkpt>
      <trkpt lat="42.91641" lon="-8.06288">
        <ele>446</ele>
        <time>2016-07-18T06:38:57Z</time>
      </trkpt>
      <trkpt lat="42.91644" lon="-8.06301">
        <ele>445</ele>
        <time>2016-07-18T06:39:06Z</time>
      </trkpt>
      <trkpt lat="42.91646" lon="-8.06314">
        <ele>444.2</ele>
        <time>2016-07-18T06:39:15Z</time>
      </trkpt>
      <trkpt lat="42.91647" lon="-8.06326">
        <ele>443.4</ele>
        <time>2016-07-18T06:39:23Z</time>
      </trkpt>
      <trkpt lat="42.9165" lon="-8.06338">
        <ele>442.6</ele>
        <time>2016-07-18T06:39:31Z</time>
      </trkpt>
      <trkpt lat="42.91653" lon="-8.06351">
        <ele>441.6</ele>
        <time>2016-07-18T06:39:40Z</time>
      </trkpt>
      <trkpt lat="42.91657" lon="-8.06362">
        <ele>440.4</ele>
        <time>2016-07-18T06:39:48Z</time>
      </trkpt>
      <trkpt lat="42.91662" lon="-8.06374">
        <ele>439.5</ele>
        <time>2016-07-18T06:39:57Z</time>
      </trkpt>
      <trkpt lat="42.91667" lon="-8.06385">
        <ele>437.8</ele>
        <time>2016-07-18T06:40:06Z</time>
      </trkpt>
      <trkpt lat="42.91672" lon="-8.06395">
        <ele>436.2</ele>
        <time>2016-07-18T06:40:16Z</time>
      </trkpt>
      <trkpt lat="42.91681" lon="-8.06401">
        <ele>433.6</ele>
        <time>2016-07-18T06:40:29Z</time>
      </trkpt>
      <trkpt lat="42.9169" lon="-8.06404">
        <ele>432.3</ele>
        <time>2016-07-18T06:40:37Z</time>
      </trkpt>
      <trkpt lat="42.91697" lon="-8.06413">
        <ele>431.1</ele>
        <time>2016-07-18T06:40:46Z</time>
      </trkpt>
      <trkpt lat="42.91701" lon="-8.06425">
        <ele>428.9</ele>
        <time>2016-07-18T06:40:57Z</time>
      </trkpt>
      <trkpt lat="42.91701" lon="-8.06439">
        <ele>427.1</ele>
        <time>2016-07-18T06:41:08Z</time>
      </trkpt>
      <trkpt lat="42.91699" lon="-8.06451">
        <ele>425.9</ele>
        <time>2016-07-18T06:41:17Z</time>
      </trkpt>
      <trkpt lat="42.91697" lon="-8.06464">
        <ele>425.2</ele>
        <time>2016-07-18T06:41:24Z</time>
      </trkpt>
      <trkpt lat="42.91694" lon="-8.06477">
        <ele>424.3</ele>
        <time>2016-07-18T06:41:32Z</time>
      </trkpt>
      <trkpt lat="42.91692" lon="-8.06489">
        <ele>423.4</ele>
        <time>2016-07-18T06:41:42Z</time>
      </trkpt>
      <trkpt lat="42.91689" lon="-8.06501">
        <ele>422.8</ele>
        <time>2016-07-18T06:41:51Z</time>
      </trkpt>
      <trkpt lat="42.91683" lon="-8.06512">
        <ele>422.3</ele>
        <time>2016-07-18T06:41:59Z</time>
      </trkpt>
      <trkpt lat="42.91677" lon="-8.06524">
        <ele>421.8</ele>
        <time>2016-07-18T06:42:07Z</time>
      </trkpt>
      <trkpt lat="42.91672" lon="-8.06535">
        <ele>421.6</ele>
        <time>2016-07-18T06:42:14Z</time>
      </trkpt>
      <trkpt lat="42.91667" lon="-8.06547">
        <ele>421.3</ele>
        <time>2016-07-18T06:42:21Z</time>
      </trkpt>
      <trkpt lat="42.91664" lon="-8.0656">
        <ele>421.7</ele>
        <time>2016-07-18T06:42:30Z</time>
      </trkpt>
      <trkpt lat="42.91662" lon="-8.06573">
        <ele>421.5</ele>
        <time>2016-07-18T06:42:39Z</time>
      </trkpt>
      <trkpt lat="42.91658" lon="-8.06585">
        <ele>422.3</ele>
        <time>2016-07-18T06:42:47Z</time>
      </trkpt>
      <trkpt lat="42.91656" lon="-8.06598">
        <ele>422.6</ele>
        <time>2016-07-18T06:42:56Z</time>
      </trkpt>
      <trkpt lat="42.91652" lon="-8.0661">
        <ele>423.3</ele>
        <time>2016-07-18T06:43:04Z</time>
      </trkpt>
      <trkpt lat="42.91649" lon="-8.06622">
        <ele>423.6</ele>
        <time>2016-07-18T06:43:12Z</time>
      </trkpt>
      <trkpt lat="42.91645" lon="-8.06634">
        <ele>423.9</ele>
        <time>2016-07-18T06:43:21Z</time>
      </trkpt>
      <trkpt lat="42.91643" lon="-8.06647">
        <ele>424.1</ele>
        <time>2016-07-18T06:43:30Z</time>
      </trkpt>
      <trkpt lat="42.91642" lon="-8.0666">
        <ele>424.2</ele>
        <time>2016-07-18T06:43:39Z</time>
      </trkpt>
      <trkpt lat="42.91641" lon="-8.06674">
        <ele>424.2</ele>
        <time>2016-07-18T06:43:48Z</time>
      </trkpt>
      <trkpt lat="42.91638" lon="-8.06688">
        <ele>424.4</ele>
        <time>2016-07-18T06:43:56Z</time>
      </trkpt>
      <trkpt lat="42.91636" lon="-8.067">
        <ele>424.2</ele>
        <time>2016-07-18T06:44:04Z</time>
      </trkpt>
      <trkpt lat="42.91632" lon="-8.06711">
        <ele>424.1</ele>
        <time>2016-07-18T06:44:11Z</time>
      </trkpt>
      <trkpt lat="42.91629" lon="-8.06724">
        <ele>424</ele>
        <time>2016-07-18T06:44:19Z</time>
      </trkpt>
      <trkpt lat="42.91627" lon="-8.06737">
        <ele>423.9</ele>
        <time>2016-07-18T06:44:27Z</time>
      </trkpt>
      <trkpt lat="42.91626" lon="-8.0675">
        <ele>423.7</ele>
        <time>2016-07-18T06:44:36Z</time>
      </trkpt>
      <trkpt lat="42.91624" lon="-8.06763">
        <ele>424</ele>
        <time>2016-07-18T06:44:45Z</time>
      </trkpt>
      <trkpt lat="42.91623" lon="-8.06776">
        <ele>424.2</ele>
        <time>2016-07-18T06:44:53Z</time>
      </trkpt>
      <trkpt lat="42.91621" lon="-8.06789">
        <ele>424.4</ele>
        <time>2016-07-18T06:45:02Z</time>
      </trkpt>
      <trkpt lat="42.91619" lon="-8.06801">
        <ele>424.9</ele>
        <time>2016-07-18T06:45:11Z</time>
      </trkpt>
      <trkpt lat="42.91616" lon="-8.06814">
        <ele>424.6</ele>
        <time>2016-07-18T06:45:20Z</time>
      </trkpt>
      <trkpt lat="42.91615" lon="-8.06827">
        <ele>424.5</ele>
        <time>2016-07-18T06:45:29Z</time>
      </trkpt>
      <trkpt lat="42.91613" lon="-8.06841">
        <ele>424.9</ele>
        <time>2016-07-18T06:45:38Z</time>
      </trkpt>
      <trkpt lat="42.91613" lon="-8.06854">
        <ele>425.2</ele>
        <time>2016-07-18T06:45:48Z</time>
      </trkpt>
      <trkpt lat="42.91611" lon="-8.06867">
        <ele>425.6</ele>
        <time>2016-07-18T06:45:57Z</time>
      </trkpt>
      <trkpt lat="42.91609" lon="-8.06879">
        <ele>425.9</ele>
        <time>2016-07-18T06:46:06Z</time>
      </trkpt>
      <trkpt lat="42.91606" lon="-8.06892">
        <ele>426</ele>
        <time>2016-07-18T06:46:14Z</time>
      </trkpt>
      <trkpt lat="42.91602" lon="-8.06903">
        <ele>426.1</ele>
        <time>2016-07-18T06:46:22Z</time>
      </trkpt>
      <trkpt lat="42.91598" lon="-8.06915">
        <ele>426.2</ele>
        <time>2016-07-18T06:46:30Z</time>
      </trkpt>
      <trkpt lat="42.91594" lon="-8.06927">
        <ele>426.4</ele>
        <time>2016-07-18T06:46:38Z</time>
      </trkpt>
      <trkpt lat="42.91589" lon="-8.06938">
        <ele>426.5</ele>
        <time>2016-07-18T06:46:46Z</time>
      </trkpt>
      <trkpt lat="42.91586" lon="-8.06951">
        <ele>426.7</ele>
        <time>2016-07-18T06:46:55Z</time>
      </trkpt>
      <trkpt lat="42.91584" lon="-8.06963">
        <ele>427</ele>
        <time>2016-07-18T06:47:03Z</time>
      </trkpt>
      <trkpt lat="42.91582" lon="-8.06975">
        <ele>427.4</ele>
        <time>2016-07-18T06:47:11Z</time>
      </trkpt>
      <trkpt lat="42.91579" lon="-8.06987">
        <ele>427.7</ele>
        <time>2016-07-18T06:47:19Z</time>
      </trkpt>
      <trkpt lat="42.91577" lon="-8.06999">
        <ele>428</ele>
        <time>2016-07-18T06:47:27Z</time>
      </trkpt>
      <trkpt lat="42.91576" lon="-8.07013">
        <ele>427.9</ele>
        <time>2016-07-18T06:47:37Z</time>
      </trkpt>
      <trkpt lat="42.91576" lon="-8.07027">
        <ele>427.8</ele>
        <time>2016-07-18T06:47:46Z</time>
      </trkpt>
      <trkpt lat="42.91578" lon="-8.07039">
        <ele>427.9</ele>
        <time>2016-07-18T06:47:55Z</time>
      </trkpt>
      <trkpt lat="42.9158" lon="-8.07052">
        <ele>428.1</ele>
        <time>2016-07-18T06:48:04Z</time>
      </trkpt>
      <trkpt lat="42.91582" lon="-8.07065">
        <ele>428.3</ele>
        <time>2016-07-18T06:48:13Z</time>
      </trkpt>
      <trkpt lat="42.91584" lon="-8.07077">
        <ele>429.4</ele>
        <time>2016-07-18T06:48:22Z</time>
      </trkpt>
      <trkpt lat="42.91583" lon="-8.07091">
        <ele>430</ele>
        <time>2016-07-18T06:48:31Z</time>
      </trkpt>
      <trkpt lat="42.91583" lon="-8.07104">
        <ele>429.9</ele>
        <time>2016-07-18T06:48:39Z</time>
      </trkpt>
      <trkpt lat="42.91581" lon="-8.07117">
        <ele>430</ele>
        <time>2016-07-18T06:48:46Z</time>
      </trkpt>
      <trkpt lat="42.9158" lon="-8.0713">
        <ele>430.3</ele>
        <time>2016-07-18T06:48:53Z</time>
      </trkpt>
      <trkpt lat="42.9158" lon="-8.07142">
        <ele>430.5</ele>
        <time>2016-07-18T06:49:00Z</time>
      </trkpt>
      <trkpt lat="42.91581" lon="-8.07156">
        <ele>430.4</ele>
        <time>2016-07-18T06:49:08Z</time>
      </trkpt>
      <trkpt lat="42.91582" lon="-8.07169">
        <ele>429.8</ele>
        <time>2016-07-18T06:49:17Z</time>
      </trkpt>
      <trkpt lat="42.91586" lon="-8.07181">
        <ele>429.6</ele>
        <time>2016-07-18T06:49:27Z</time>
      </trkpt>
      <trkpt lat="42.9159" lon="-8.07192">
        <ele>429.6</ele>
        <time>2016-07-18T06:49:36Z</time>
      </trkpt>
      <trkpt lat="42.91594" lon="-8.07204">
        <ele>428.9</ele>
        <time>2016-07-18T06:49:45Z</time>
      </trkpt>
      <trkpt lat="42.91595" lon="-8.07218">
        <ele>428.5</ele>
        <time>2016-07-18T06:49:54Z</time>
      </trkpt>
      <trkpt lat="42.91595" lon="-8.0723">
        <ele>428</ele>
        <time>2016-07-18T06:50:03Z</time>
      </trkpt>
      <trkpt lat="42.91594" lon="-8.07244">
        <ele>427.9</ele>
        <time>2016-07-18T06:50:12Z</time>
      </trkpt>
      <trkpt lat="42.91591" lon="-8.07257">
        <ele>426.7</ele>
        <time>2016-07-18T06:50:21Z</time>
      </trkpt>
      <trkpt lat="42.91588" lon="-8.07268">
        <ele>426.3</ele>
        <time>2016-07-18T06:50:29Z</time>
      </trkpt>
      <trkpt lat="42.91584" lon="-8.07281">
        <ele>426.2</ele>
        <time>2016-07-18T06:50:37Z</time>
      </trkpt>
      <trkpt lat="42.91578" lon="-8.07291">
        <ele>426.2</ele>
        <time>2016-07-18T06:50:45Z</time>
      </trkpt>
      <trkpt lat="42.91572" lon="-8.07301">
        <ele>425.9</ele>
        <time>2016-07-18T06:50:54Z</time>
      </trkpt>
      <trkpt lat="42.91567" lon="-8.07312">
        <ele>425.4</ele>
        <time>2016-07-18T06:51:03Z</time>
      </trkpt>
      <trkpt lat="42.91562" lon="-8.07324">
        <ele>424.8</ele>
        <time>2016-07-18T06:51:12Z</time>
      </trkpt>
      <trkpt lat="42.91558" lon="-8.07335">
        <ele>424.4</ele>
        <time>2016-07-18T06:51:21Z</time>
      </trkpt>
      <trkpt lat="42.91556" lon="-8.07348">
        <ele>423.6</ele>
        <time>2016-07-18T06:51:30Z</time>
      </trkpt>
      <trkpt lat="42.9156" lon="-8.07361">
        <ele>423.1</ele>
        <time>2016-07-18T06:51:39Z</time>
      </trkpt>
      <trkpt lat="42.91564" lon="-8.07372">
        <ele>422.4</ele>
        <time>2016-07-18T06:51:46Z</time>
      </trkpt>
      <trkpt lat="42.91569" lon="-8.07384">
        <ele>421.8</ele>
        <time>2016-07-18T06:51:54Z</time>
      </trkpt>
      <trkpt lat="42.91575" lon="-8.07393">
        <ele>421.2</ele>
        <time>2016-07-18T06:52:02Z</time>
      </trkpt>
      <trkpt lat="42.91582" lon="-8.07403">
        <ele>420.7</ele>
        <time>2016-07-18T06:52:11Z</time>
      </trkpt>
      <trkpt lat="42.91588" lon="-8.07413">
        <ele>420</ele>
        <time>2016-07-18T06:52:21Z</time>
      </trkpt>
      <trkpt lat="42.91593" lon="-8.07425">
        <ele>419.1</ele>
        <time>2016-07-18T06:52:30Z</time>
      </trkpt>
      <trkpt lat="42.91597" lon="-8.07437">
        <ele>418.6</ele>
        <time>2016-07-18T06:52:40Z</time>
      </trkpt>
      <trkpt lat="42.91599" lon="-8.0745">
        <ele>418.1</ele>
        <time>2016-07-18T06:52:49Z</time>
      </trkpt>
      <trkpt lat="42.916" lon="-8.07463">
        <ele>417.3</ele>
        <time>2016-07-18T06:52:59Z</time>
      </trkpt>
      <trkpt lat="42.91601" lon="-8.07477">
        <ele>416.5</ele>
        <time>2016-07-18T06:53:08Z</time>
      </trkpt>
      <trkpt lat="42.916" lon="-8.07489">
        <ele>416.2</ele>
        <time>2016-07-18T06:53:15Z</time>
      </trkpt>
      <trkpt lat="42.91602" lon="-8.07502">
        <ele>415.8</ele>
        <time>2016-07-18T06:53:24Z</time>
      </trkpt>
      <trkpt lat="42.91602" lon="-8.07515">
        <ele>415.3</ele>
        <time>2016-07-18T06:53:33Z</time>
      </trkpt>
      <trkpt lat="42.91603" lon="-8.07527">
        <ele>414.7</ele>
        <time>2016-07-18T06:53:41Z</time>
      </trkpt>
      <trkpt lat="42.91603" lon="-8.07539">
        <ele>413.7</ele>
        <time>2016-07-18T06:53:50Z</time>
      </trkpt>
      <trkpt lat="42.91604" lon="-8.07552">
        <ele>412.7</ele>
        <time>2016-07-18T06:53:59Z</time>
      </trkpt>
      <trkpt lat="42.91604" lon="-8.07565">
        <ele>412.1</ele>
        <time>2016-07-18T06:54:09Z</time>
      </trkpt>
      <trkpt lat="42.91606" lon="-8.07578">
        <ele>411.7</ele>
        <time>2016-07-18T06:54:19Z</time>
      </trkpt>
      <trkpt lat="42.91608" lon="-8.07591">
        <ele>410.7</ele>
        <time>2016-07-18T06:54:29Z</time>
      </trkpt>
      <trkpt lat="42.9161" lon="-8.07603">
        <ele>410.2</ele>
        <time>2016-07-18T06:54:37Z</time>
      </trkpt>
      <trkpt lat="42.91611" lon="-8.07616">
        <ele>409.6</ele>
        <time>2016-07-18T06:54:45Z</time>
      </trkpt>
      <trkpt lat="42.91614" lon="-8.07628">
        <ele>409.3</ele>
        <time>2016-07-18T06:54:52Z</time>
      </trkpt>
      <trkpt lat="42.91615" lon="-8.07641">
        <ele>408.8</ele>
        <time>2016-07-18T06:55:05Z</time>
      </trkpt>
      <trkpt lat="42.91617" lon="-8.07653">
        <ele>407.4</ele>
        <time>2016-07-18T06:55:36Z</time>
      </trkpt>
      <trkpt lat="42.91624" lon="-8.07662">
        <ele>406.9</ele>
        <time>2016-07-18T06:55:44Z</time>
      </trkpt>
      <trkpt lat="42.91626" lon="-8.07675">
        <ele>406.5</ele>
        <time>2016-07-18T06:55:55Z</time>
      </trkpt>
      <trkpt lat="42.91625" lon="-8.07688">
        <ele>406.4</ele>
        <time>2016-07-18T06:56:04Z</time>
      </trkpt>
      <trkpt lat="42.91624" lon="-8.07701">
        <ele>406.2</ele>
        <time>2016-07-18T06:56:12Z</time>
      </trkpt>
      <trkpt lat="42.91623" lon="-8.07714">
        <ele>406</ele>
        <time>2016-07-18T06:56:21Z</time>
      </trkpt>
      <trkpt lat="42.91623" lon="-8.07727">
        <ele>405.4</ele>
        <time>2016-07-18T06:56:29Z</time>
      </trkpt>
      <trkpt lat="42.91623" lon="-8.0774">
        <ele>405.4</ele>
        <time>2016-07-18T06:56:39Z</time>
      </trkpt>
      <trkpt lat="42.91622" lon="-8.07752">
        <ele>405</ele>
        <time>2016-07-18T06:56:52Z</time>
      </trkpt>
      <trkpt lat="42.91621" lon="-8.07765">
        <ele>404.8</ele>
        <time>2016-07-18T06:57:03Z</time>
      </trkpt>
      <trkpt lat="42.9162" lon="-8.07778">
        <ele>404.3</ele>
        <time>2016-07-18T06:57:11Z</time>
      </trkpt>
      <trkpt lat="42.91613" lon="-8.07768">
        <ele>404.1</ele>
        <time>2016-07-18T06:57:49Z</time>
      </trkpt>
      <trkpt lat="42.91612" lon="-8.0778">
        <ele>404.6</ele>
        <time>2016-07-18T06:58:12Z</time>
      </trkpt>
      <trkpt lat="42.91617" lon="-8.07791">
        <ele>404.1</ele>
        <time>2016-07-18T06:58:25Z</time>
      </trkpt>
      <trkpt lat="42.91625" lon="-8.07784">
        <ele>404.6</ele>
        <time>2016-07-18T06:58:40Z</time>
      </trkpt>
      <trkpt lat="42.91632" lon="-8.07775">
        <ele>404.3</ele>
        <time>2016-07-18T07:01:05Z</time>
      </trkpt>
      <trkpt lat="42.91628" lon="-8.07787">
        <ele>404.1</ele>
        <time>2016-07-18T07:04:38Z</time>
      </trkpt>
      <trkpt lat="42.9163" lon="-8.078">
        <ele>403.8</ele>
        <time>2016-07-18T07:04:59Z</time>
      </trkpt>
      <trkpt lat="42.91639" lon="-8.07803">
        <ele>403.8</ele>
        <time>2016-07-18T07:05:14Z</time>
      </trkpt>
      <trkpt lat="42.91645" lon="-8.07813">
        <ele>403</ele>
        <time>2016-07-18T07:05:24Z</time>
      </trkpt>
      <trkpt lat="42.9165" lon="-8.07824">
        <ele>403.4</ele>
        <time>2016-07-18T07:05:45Z</time>
      </trkpt>
      <trkpt lat="42.91656" lon="-8.07835">
        <ele>403.4</ele>
        <time>2016-07-18T07:05:56Z</time>
      </trkpt>
      <trkpt lat="42.91661" lon="-8.07845">
        <ele>402.8</ele>
        <time>2016-07-18T07:06:06Z</time>
      </trkpt>
      <trkpt lat="42.91667" lon="-8.07857">
        <ele>402.2</ele>
        <time>2016-07-18T07:06:16Z</time>
      </trkpt>
      <trkpt lat="42.91672" lon="-8.07869">
        <ele>401.8</ele>
        <time>2016-07-18T07:06:26Z</time>
      </trkpt>
      <trkpt lat="42.91677" lon="-8.07879">
        <ele>401.4</ele>
        <time>2016-07-18T07:06:35Z</time>
      </trkpt>
      <trkpt lat="42.91683" lon="-8.07889">
        <ele>401.3</ele>
        <time>2016-07-18T07:06:43Z</time>
      </trkpt>
      <trkpt lat="42.91691" lon="-8.07896">
        <ele>400.8</ele>
        <time>2016-07-18T07:06:51Z</time>
      </trkpt>
      <trkpt lat="42.917" lon="-8.079">
        <ele>400</ele>
        <time>2016-07-18T07:07:00Z</time>
      </trkpt>
      <trkpt lat="42.9171" lon="-8.07902">
        <ele>399.1</ele>
        <time>2016-07-18T07:07:10Z</time>
      </trkpt>
      <trkpt lat="42.9172" lon="-8.07902">
        <ele>398.5</ele>
        <time>2016-07-18T07:07:20Z</time>
      </trkpt>
      <trkpt lat="42.91729" lon="-8.07903">
        <ele>398</ele>
        <time>2016-07-18T07:07:28Z</time>
      </trkpt>
      <trkpt lat="42.91739" lon="-8.07903">
        <ele>397.1</ele>
        <time>2016-07-18T07:07:37Z</time>
      </trkpt>
      <trkpt lat="42.91748" lon="-8.07905">
        <ele>395.8</ele>
        <time>2016-07-18T07:07:48Z</time>
      </trkpt>
      <trkpt lat="42.91757" lon="-8.07909">
        <ele>394.8</ele>
        <time>2016-07-18T07:07:58Z</time>
      </trkpt>
      <trkpt lat="42.91765" lon="-8.07916">
        <ele>393.7</ele>
        <time>2016-07-18T07:08:08Z</time>
      </trkpt>
      <trkpt lat="42.91773" lon="-8.07924">
        <ele>392.3</ele>
        <time>2016-07-18T07:08:21Z</time>
      </trkpt>
      <trkpt lat="42.91781" lon="-8.07931">
        <ele>390.9</ele>
        <time>2016-07-18T07:08:29Z</time>
      </trkpt>
      <trkpt lat="42.91788" lon="-8.07939">
        <ele>389.4</ele>
        <time>2016-07-18T07:08:38Z</time>
      </trkpt>
      <trkpt lat="42.91794" lon="-8.07949">
        <ele>387.3</ele>
        <time>2016-07-18T07:08:53Z</time>
      </trkpt>
      <trkpt lat="42.91797" lon="-8.07961">
        <ele>386.2</ele>
        <time>2016-07-18T07:09:41Z</time>
      </trkpt>
      <trkpt lat="42.918" lon="-8.07973">
        <ele>386.5</ele>
        <time>2016-07-18T07:09:50Z</time>
      </trkpt>
      <trkpt lat="42.91805" lon="-8.07985">
        <ele>386</ele>
        <time>2016-07-18T07:09:58Z</time>
      </trkpt>
      <trkpt lat="42.9181" lon="-8.07996">
        <ele>384.7</ele>
        <time>2016-07-18T07:10:07Z</time>
      </trkpt>
      <trkpt lat="42.91811" lon="-8.08009">
        <ele>383.8</ele>
        <time>2016-07-18T07:10:15Z</time>
      </trkpt>
      <trkpt lat="42.91814" lon="-8.08022">
        <ele>382.9</ele>
        <time>2016-07-18T07:10:22Z</time>
      </trkpt>
      <trkpt lat="42.91816" lon="-8.08035">
        <ele>382.2</ele>
        <time>2016-07-18T07:10:28Z</time>
      </trkpt>
      <trkpt lat="42.91818" lon="-8.08048">
        <ele>381.3</ele>
        <time>2016-07-18T07:10:35Z</time>
      </trkpt>
      <trkpt lat="42.91822" lon="-8.08059">
        <ele>380.9</ele>
        <time>2016-07-18T07:10:42Z</time>
      </trkpt>
      <trkpt lat="42.91824" lon="-8.08072">
        <ele>380.5</ele>
        <time>2016-07-18T07:10:49Z</time>
      </trkpt>
      <trkpt lat="42.91828" lon="-8.08084">
        <ele>380</ele>
        <time>2016-07-18T07:10:56Z</time>
      </trkpt>
      <trkpt lat="42.91831" lon="-8.08097">
        <ele>379.6</ele>
        <time>2016-07-18T07:11:03Z</time>
      </trkpt>
      <trkpt lat="42.91834" lon="-8.08111">
        <ele>378.6</ele>
        <time>2016-07-18T07:11:10Z</time>
      </trkpt>
      <trkpt lat="42.91835" lon="-8.08123">
        <ele>377.7</ele>
        <time>2016-07-18T07:11:17Z</time>
      </trkpt>
      <trkpt lat="42.91834" lon="-8.08138">
        <ele>376.4</ele>
        <time>2016-07-18T07:11:25Z</time>
      </trkpt>
      <trkpt lat="42.91836" lon="-8.08151">
        <ele>375.3</ele>
        <time>2016-07-18T07:11:32Z</time>
      </trkpt>
      <trkpt lat="42.91841" lon="-8.08163">
        <ele>374.3</ele>
        <time>2016-07-18T07:11:40Z</time>
      </trkpt>
      <trkpt lat="42.91843" lon="-8.08176">
        <ele>373.5</ele>
        <time>2016-07-18T07:11:48Z</time>
      </trkpt>
      <trkpt lat="42.9184" lon="-8.08188">
        <ele>372.5</ele>
        <time>2016-07-18T07:11:57Z</time>
      </trkpt>
      <trkpt lat="42.91837" lon="-8.08199">
        <ele>370.9</ele>
        <time>2016-07-18T07:12:06Z</time>
      </trkpt>
      <trkpt lat="42.91836" lon="-8.08213">
        <ele>369.8</ele>
        <time>2016-07-18T07:12:16Z</time>
      </trkpt>
      <trkpt lat="42.91837" lon="-8.08226">
        <ele>368.7</ele>
        <time>2016-07-18T07:12:26Z</time>
      </trkpt>
      <trkpt lat="42.91839" lon="-8.08238">
        <ele>367.9</ele>
        <time>2016-07-18T07:12:34Z</time>
      </trkpt>
      <trkpt lat="42.9184" lon="-8.08252">
        <ele>367.1</ele>
        <time>2016-07-18T07:12:44Z</time>
      </trkpt>
      <trkpt lat="42.91843" lon="-8.08265">
        <ele>366.3</ele>
        <time>2016-07-18T07:12:54Z</time>
      </trkpt>
      <trkpt lat="42.91846" lon="-8.08277">
        <ele>365.4</ele>
        <time>2016-07-18T07:13:02Z</time>
      </trkpt>
      <trkpt lat="42.91849" lon="-8.08289">
        <ele>365</ele>
        <time>2016-07-18T07:13:10Z</time>
      </trkpt>
      <trkpt lat="42.91848" lon="-8.08303">
        <ele>364.5</ele>
        <time>2016-07-18T07:13:19Z</time>
      </trkpt>
      <trkpt lat="42.91844" lon="-8.08315">
        <ele>364</ele>
        <time>2016-07-18T07:13:28Z</time>
      </trkpt>
      <trkpt lat="42.91838" lon="-8.08325">
        <ele>363.3</ele>
        <time>2016-07-18T07:13:36Z</time>
      </trkpt>
      <trkpt lat="42.91833" lon="-8.08335">
        <ele>362.5</ele>
        <time>2016-07-18T07:13:44Z</time>
      </trkpt>
      <trkpt lat="42.91829" lon="-8.08346">
        <ele>362</ele>
        <time>2016-07-18T07:13:52Z</time>
      </trkpt>
      <trkpt lat="42.91825" lon="-8.08357">
        <ele>361.6</ele>
        <time>2016-07-18T07:14:00Z</time>
      </trkpt>
      <trkpt lat="42.9182" lon="-8.08368">
        <ele>360.8</ele>
        <time>2016-07-18T07:14:08Z</time>
      </trkpt>
      <trkpt lat="42.91815" lon="-8.08379">
        <ele>359.9</ele>
        <time>2016-07-18T07:14:16Z</time>
      </trkpt>
      <trkpt lat="42.91809" lon="-8.0839">
        <ele>359.5</ele>
        <time>2016-07-18T07:14:24Z</time>
      </trkpt>
      <trkpt lat="42.91805" lon="-8.08401">
        <ele>359.4</ele>
        <time>2016-07-18T07:14:31Z</time>
      </trkpt>
      <trkpt lat="42.91802" lon="-8.08414">
        <ele>359.3</ele>
        <time>2016-07-18T07:14:39Z</time>
      </trkpt>
      <trkpt lat="42.91801" lon="-8.08427">
        <ele>358.7</ele>
        <time>2016-07-18T07:14:50Z</time>
      </trkpt>
      <trkpt lat="42.91802" lon="-8.08439">
        <ele>357.6</ele>
        <time>2016-07-18T07:15:02Z</time>
      </trkpt>
      <trkpt lat="42.91802" lon="-8.08452">
        <ele>356.3</ele>
        <time>2016-07-18T07:15:12Z</time>
      </trkpt>
      <trkpt lat="42.91803" lon="-8.08464">
        <ele>354.9</ele>
        <time>2016-07-18T07:15:22Z</time>
      </trkpt>
      <trkpt lat="42.91808" lon="-8.08476">
        <ele>353.1</ele>
        <time>2016-07-18T07:15:35Z</time>
      </trkpt>
      <trkpt lat="42.91809" lon="-8.08488">
        <ele>352.6</ele>
        <time>2016-07-18T07:15:43Z</time>
      </trkpt>
      <trkpt lat="42.91812" lon="-8.08501">
        <ele>351.5</ele>
        <time>2016-07-18T07:15:54Z</time>
      </trkpt>
      <trkpt lat="42.91817" lon="-8.08514">
        <ele>351.1</ele>
        <time>2016-07-18T07:16:01Z</time>
      </trkpt>
      <trkpt lat="42.9182" lon="-8.08526">
        <ele>350.8</ele>
        <time>2016-07-18T07:16:07Z</time>
      </trkpt>
      <trkpt lat="42.91822" lon="-8.08539">
        <ele>350.3</ele>
        <time>2016-07-18T07:16:15Z</time>
      </trkpt>
      <trkpt lat="42.91824" lon="-8.08551">
        <ele>349.1</ele>
        <time>2016-07-18T07:16:28Z</time>
      </trkpt>
      <trkpt lat="42.91828" lon="-8.08563">
        <ele>347.9</ele>
        <time>2016-07-18T07:16:40Z</time>
      </trkpt>
      <trkpt lat="42.91832" lon="-8.08575">
        <ele>346.5</ele>
        <time>2016-07-18T07:16:51Z</time>
      </trkpt>
      <trkpt lat="42.91837" lon="-8.08587">
        <ele>345.5</ele>
        <time>2016-07-18T07:17:00Z</time>
      </trkpt>
      <trkpt lat="42.9184" lon="-8.08599">
        <ele>344.1</ele>
        <time>2016-07-18T07:17:11Z</time>
      </trkpt>
      <trkpt lat="42.91845" lon="-8.08609">
        <ele>343.3</ele>
        <time>2016-07-18T07:17:26Z</time>
      </trkpt>
      <trkpt lat="42.91849" lon="-8.08621">
        <ele>342.9</ele>
        <time>2016-07-18T07:17:38Z</time>
      </trkpt>
      <trkpt lat="42.9185" lon="-8.08633">
        <ele>342.3</ele>
        <time>2016-07-18T07:17:49Z</time>
      </trkpt>
      <trkpt lat="42.91853" lon="-8.08644">
        <ele>341.9</ele>
        <time>2016-07-18T07:17:57Z</time>
      </trkpt>
      <trkpt lat="42.91856" lon="-8.08656">
        <ele>341.7</ele>
        <time>2016-07-18T07:18:05Z</time>
      </trkpt>
      <trkpt lat="42.91859" lon="-8.08669">
        <ele>341.4</ele>
        <time>2016-07-18T07:18:13Z</time>
      </trkpt>
      <trkpt lat="42.9186" lon="-8.08681">
        <ele>341.3</ele>
        <time>2016-07-18T07:18:21Z</time>
      </trkpt>
      <trkpt lat="42.91861" lon="-8.08695">
        <ele>341.5</ele>
        <time>2016-07-18T07:18:30Z</time>
      </trkpt>
      <trkpt lat="42.91862" lon="-8.08708">
        <ele>341.7</ele>
        <time>2016-07-18T07:18:38Z</time>
      </trkpt>
      <trkpt lat="42.91866" lon="-8.0872">
        <ele>342.3</ele>
        <time>2016-07-18T07:18:47Z</time>
      </trkpt>
      <trkpt lat="42.91869" lon="-8.08732">
        <ele>342.3</ele>
        <time>2016-07-18T07:18:57Z</time>
      </trkpt>
      <trkpt lat="42.91872" lon="-8.08744">
        <ele>342.2</ele>
        <time>2016-07-18T07:19:07Z</time>
      </trkpt>
      <trkpt lat="42.91875" lon="-8.08756">
        <ele>342.5</ele>
        <time>2016-07-18T07:19:17Z</time>
      </trkpt>
      <trkpt lat="42.91872" lon="-8.08768">
        <ele>343.2</ele>
        <time>2016-07-18T07:19:26Z</time>
      </trkpt>
      <trkpt lat="42.91869" lon="-8.08781">
        <ele>343.6</ele>
        <time>2016-07-18T07:19:34Z</time>
      </trkpt>
      <trkpt lat="42.91865" lon="-8.08794">
        <ele>344</ele>
        <time>2016-07-18T07:19:44Z</time>
      </trkpt>
      <trkpt lat="42.91861" lon="-8.08806">
        <ele>344.4</ele>
        <time>2016-07-18T07:19:53Z</time>
      </trkpt>
      <trkpt lat="42.91858" lon="-8.08818">
        <ele>344.6</ele>
        <time>2016-07-18T07:20:03Z</time>
      </trkpt>
      <trkpt lat="42.91856" lon="-8.08831">
        <ele>344.7</ele>
        <time>2016-07-18T07:20:15Z</time>
      </trkpt>
      <trkpt lat="42.91857" lon="-8.08843">
        <ele>345.2</ele>
        <time>2016-07-18T07:20:25Z</time>
      </trkpt>
      <trkpt lat="42.91858" lon="-8.08856">
        <ele>346.2</ele>
        <time>2016-07-18T07:20:34Z</time>
      </trkpt>
      <trkpt lat="42.91857" lon="-8.08868">
        <ele>346.9</ele>
        <time>2016-07-18T07:20:45Z</time>
      </trkpt>
      <trkpt lat="42.91854" lon="-8.0888">
        <ele>347.2</ele>
        <time>2016-07-18T07:20:54Z</time>
      </trkpt>
      <trkpt lat="42.91852" lon="-8.08893">
        <ele>347.9</ele>
        <time>2016-07-18T07:21:04Z</time>
      </trkpt>
      <trkpt lat="42.91851" lon="-8.08905">
        <ele>348.3</ele>
        <time>2016-07-18T07:21:13Z</time>
      </trkpt>
      <trkpt lat="42.91856" lon="-8.08917">
        <ele>348.6</ele>
        <time>2016-07-18T07:21:22Z</time>
      </trkpt>
      <trkpt lat="42.91865" lon="-8.08919">
        <ele>349.7</ele>
        <time>2016-07-18T07:21:36Z</time>
      </trkpt>
      <trkpt lat="42.91874" lon="-8.08915">
        <ele>351.2</ele>
        <time>2016-07-18T07:21:49Z</time>
      </trkpt>
      <trkpt lat="42.91882" lon="-8.08906">
        <ele>352.9</ele>
        <time>2016-07-18T07:22:02Z</time>
      </trkpt>
      <trkpt lat="42.91889" lon="-8.08897">
        <ele>354</ele>
        <time>2016-07-18T07:22:14Z</time>
      </trkpt>
      <trkpt lat="42.91897" lon="-8.0889">
        <ele>355.6</ele>
        <time>2016-07-18T07:22:26Z</time>
      </trkpt>
      <trkpt lat="42.91906" lon="-8.08893">
        <ele>357.2</ele>
        <time>2016-07-18T07:22:38Z</time>
      </trkpt>
      <trkpt lat="42.91913" lon="-8.08902">
        <ele>358.6</ele>
        <time>2016-07-18T07:22:48Z</time>
      </trkpt>
      <trkpt lat="42.91919" lon="-8.08913">
        <ele>359.3</ele>
        <time>2016-07-18T07:22:57Z</time>
      </trkpt>
      <trkpt lat="42.91923" lon="-8.08924">
        <ele>361.5</ele>
        <time>2016-07-18T07:23:25Z</time>
      </trkpt>
      <trkpt lat="42.91926" lon="-8.08936">
        <ele>361.6</ele>
        <time>2016-07-18T07:23:37Z</time>
      </trkpt>
      <trkpt lat="42.91931" lon="-8.08947">
        <ele>362.1</ele>
        <time>2016-07-18T07:23:47Z</time>
      </trkpt>
      <trkpt lat="42.91935" lon="-8.08958">
        <ele>362.8</ele>
        <time>2016-07-18T07:23:57Z</time>
      </trkpt>
      <trkpt lat="42.91939" lon="-8.0897">
        <ele>363.7</ele>
        <time>2016-07-18T07:24:07Z</time>
      </trkpt>
      <trkpt lat="42.91942" lon="-8.08982">
        <ele>365.1</ele>
        <time>2016-07-18T07:24:18Z</time>
      </trkpt>
      <trkpt lat="42.91944" lon="-8.08995">
        <ele>366.2</ele>
        <time>2016-07-18T07:24:29Z</time>
      </trkpt>
      <trkpt lat="42.91945" lon="-8.09007">
        <ele>367.7</ele>
        <time>2016-07-18T07:24:40Z</time>
      </trkpt>
      <trkpt lat="42.91946" lon="-8.0902">
        <ele>369.7</ele>
        <time>2016-07-18T07:24:50Z</time>
      </trkpt>
      <trkpt lat="42.91947" lon="-8.09032">
        <ele>370.7</ele>
        <time>2016-07-18T07:24:59Z</time>
      </trkpt>
      <trkpt lat="42.91948" lon="-8.09045">
        <ele>371.9</ele>
        <time>2016-07-18T07:25:10Z</time>
      </trkpt>
      <trkpt lat="42.91949" lon="-8.09058">
        <ele>373.4</ele>
        <time>2016-07-18T07:25:20Z</time>
      </trkpt>
      <trkpt lat="42.9195" lon="-8.0907">
        <ele>374.5</ele>
        <time>2016-07-18T07:25:29Z</time>
      </trkpt>
      <trkpt lat="42.91952" lon="-8.09082">
        <ele>375.8</ele>
        <time>2016-07-18T07:25:40Z</time>
      </trkpt>
      <trkpt lat="42.91957" lon="-8.09095">
        <ele>377.1</ele>
        <time>2016-07-18T07:25:52Z</time>
      </trkpt>
      <trkpt lat="42.9196" lon="-8.09106">
        <ele>378.3</ele>
        <time>2016-07-18T07:26:01Z</time>
      </trkpt>
      <trkpt lat="42.91965" lon="-8.09116">
        <ele>379.1</ele>
        <time>2016-07-18T07:26:10Z</time>
      </trkpt>
      <trkpt lat="42.91972" lon="-8.09126">
        <ele>380.6</ele>
        <time>2016-07-18T07:26:21Z</time>
      </trkpt>
      <trkpt lat="42.91978" lon="-8.09135">
        <ele>381.6</ele>
        <time>2016-07-18T07:26:32Z</time>
      </trkpt>
      <trkpt lat="42.91984" lon="-8.09144">
        <ele>382.4</ele>
        <time>2016-07-18T07:26:44Z</time>
      </trkpt>
      <trkpt lat="42.91991" lon="-8.09153">
        <ele>383.8</ele>
        <time>2016-07-18T07:26:54Z</time>
      </trkpt>
      <trkpt lat="42.91998" lon="-8.09162">
        <ele>385.4</ele>
        <time>2016-07-18T07:27:05Z</time>
      </trkpt>
      <trkpt lat="42.92005" lon="-8.09171">
        <ele>386.4</ele>
        <time>2016-07-18T07:27:15Z</time>
      </trkpt>
      <trkpt lat="42.92011" lon="-8.0918">
        <ele>387.5</ele>
        <time>2016-07-18T07:27:26Z</time>
      </trkpt>
      <trkpt lat="42.92018" lon="-8.09188">
        <ele>389.4</ele>
        <time>2016-07-18T07:27:36Z</time>
      </trkpt>
      <trkpt lat="42.92026" lon="-8.09195">
        <ele>390.7</ele>
        <time>2016-07-18T07:27:44Z</time>
      </trkpt>
      <trkpt lat="42.92034" lon="-8.09203">
        <ele>392.2</ele>
        <time>2016-07-18T07:27:54Z</time>
      </trkpt>
      <trkpt lat="42.92041" lon="-8.09212">
        <ele>393.5</ele>
        <time>2016-07-18T07:28:04Z</time>
      </trkpt>
      <trkpt lat="42.92044" lon="-8.09223">
        <ele>396.1</ele>
        <time>2016-07-18T07:28:18Z</time>
      </trkpt>
      <trkpt lat="42.92039" lon="-8.09233">
        <ele>399.7</ele>
        <time>2016-07-18T07:28:55Z</time>
      </trkpt>
      <trkpt lat="42.92044" lon="-8.09244">
        <ele>399.9</ele>
        <time>2016-07-18T07:29:07Z</time>
      </trkpt>
      <trkpt lat="42.92052" lon="-8.09251">
        <ele>400.3</ele>
        <time>2016-07-18T07:29:18Z</time>
      </trkpt>
      <trkpt lat="42.92061" lon="-8.09256">
        <ele>401.9</ele>
        <time>2016-07-18T07:29:31Z</time>
      </trkpt>
      <trkpt lat="42.92071" lon="-8.09259">
        <ele>403.3</ele>
        <time>2016-07-18T07:29:45Z</time>
      </trkpt>
      <trkpt lat="42.9208" lon="-8.09264">
        <ele>404.1</ele>
        <time>2016-07-18T07:29:54Z</time>
      </trkpt>
      <trkpt lat="42.92089" lon="-8.09269">
        <ele>404.3</ele>
        <time>2016-07-18T07:30:01Z</time>
      </trkpt>
      <trkpt lat="42.92098" lon="-8.09273">
        <ele>405.1</ele>
        <time>2016-07-18T07:30:11Z</time>
      </trkpt>
      <trkpt lat="42.92106" lon="-8.09278">
        <ele>405.5</ele>
        <time>2016-07-18T07:30:19Z</time>
      </trkpt>
      <trkpt lat="42.92115" lon="-8.09282">
        <ele>405.7</ele>
        <time>2016-07-18T07:30:27Z</time>
      </trkpt>
      <trkpt lat="42.92125" lon="-8.09284">
        <ele>406</ele>
        <time>2016-07-18T07:30:34Z</time>
      </trkpt>
      <trkpt lat="42.92134" lon="-8.09286">
        <ele>406.9</ele>
        <time>2016-07-18T07:30:41Z</time>
      </trkpt>
      <trkpt lat="42.92144" lon="-8.0929">
        <ele>407.6</ele>
        <time>2016-07-18T07:30:49Z</time>
      </trkpt>
      <trkpt lat="42.92152" lon="-8.09294">
        <ele>408</ele>
        <time>2016-07-18T07:30:57Z</time>
      </trkpt>
      <trkpt lat="42.92161" lon="-8.09299">
        <ele>408.4</ele>
        <time>2016-07-18T07:31:06Z</time>
      </trkpt>
      <trkpt lat="42.9217" lon="-8.09302">
        <ele>408.7</ele>
        <time>2016-07-18T07:31:14Z</time>
      </trkpt>
      <trkpt lat="42.92179" lon="-8.09308">
        <ele>409</ele>
        <time>2016-07-18T07:31:23Z</time>
      </trkpt>
      <trkpt lat="42.92188" lon="-8.09312">
        <ele>409.2</ele>
        <time>2016-07-18T07:31:31Z</time>
      </trkpt>
      <trkpt lat="42.92197" lon="-8.09316">
        <ele>409.6</ele>
        <time>2016-07-18T07:31:40Z</time>
      </trkpt>
      <trkpt lat="42.92207" lon="-8.09321">
        <ele>410.3</ele>
        <time>2016-07-18T07:31:50Z</time>
      </trkpt>
      <trkpt lat="42.92215" lon="-8.09328">
        <ele>410.7</ele>
        <time>2016-07-18T07:31:58Z</time>
      </trkpt>
      <trkpt lat="42.92224" lon="-8.09333">
        <ele>411</ele>
        <time>2016-07-18T07:32:06Z</time>
      </trkpt>
      <trkpt lat="42.92232" lon="-8.0934">
        <ele>411.4</ele>
        <time>2016-07-18T07:32:14Z</time>
      </trkpt>
      <trkpt lat="42.9224" lon="-8.09346">
        <ele>411.7</ele>
        <time>2016-07-18T07:32:22Z</time>
      </trkpt>
      <trkpt lat="42.92249" lon="-8.09352">
        <ele>411.6</ele>
        <time>2016-07-18T07:32:30Z</time>
      </trkpt>
      <trkpt lat="42.92258" lon="-8.09359">
        <ele>411.6</ele>
        <time>2016-07-18T07:32:39Z</time>
      </trkpt>
      <trkpt lat="42.92266" lon="-8.09366">
        <ele>411.4</ele>
        <time>2016-07-18T07:32:48Z</time>
      </trkpt>
      <trkpt lat="42.92275" lon="-8.09372">
        <ele>411.2</ele>
        <time>2016-07-18T07:32:59Z</time>
      </trkpt>
      <trkpt lat="42.92283" lon="-8.09379">
        <ele>411.4</ele>
        <time>2016-07-18T07:33:11Z</time>
      </trkpt>
      <trkpt lat="42.9229" lon="-8.09386">
        <ele>411.6</ele>
        <time>2016-07-18T07:33:24Z</time>
      </trkpt>
      <trkpt lat="42.92298" lon="-8.09393">
        <ele>411.5</ele>
        <time>2016-07-18T07:33:33Z</time>
      </trkpt>
      <trkpt lat="42.92307" lon="-8.09401">
        <ele>411.5</ele>
        <time>2016-07-18T07:33:40Z</time>
      </trkpt>
      <trkpt lat="42.92315" lon="-8.09407">
        <ele>411.3</ele>
        <time>2016-07-18T07:33:47Z</time>
      </trkpt>
      <trkpt lat="42.92322" lon="-8.09414">
        <ele>411.3</ele>
        <time>2016-07-18T07:33:53Z</time>
      </trkpt>
      <trkpt lat="42.92331" lon="-8.0942">
        <ele>411.4</ele>
        <time>2016-07-18T07:34:00Z</time>
      </trkpt>
      <trkpt lat="42.92338" lon="-8.09428">
        <ele>411.7</ele>
        <time>2016-07-18T07:34:07Z</time>
      </trkpt>
      <trkpt lat="42.92346" lon="-8.09435">
        <ele>412.3</ele>
        <time>2016-07-18T07:34:15Z</time>
      </trkpt>
      <trkpt lat="42.92354" lon="-8.09443">
        <ele>412.6</ele>
        <time>2016-07-18T07:34:23Z</time>
      </trkpt>
      <trkpt lat="42.92362" lon="-8.0945">
        <ele>412.1</ele>
        <time>2016-07-18T07:34:32Z</time>
      </trkpt>
      <trkpt lat="42.9237" lon="-8.09456">
        <ele>411.9</ele>
        <time>2016-07-18T07:34:42Z</time>
      </trkpt>
      <trkpt lat="42.92378" lon="-8.09464">
        <ele>412.2</ele>
        <time>2016-07-18T07:34:50Z</time>
      </trkpt>
      <trkpt lat="42.92386" lon="-8.09472">
        <ele>412.4</ele>
        <time>2016-07-18T07:34:59Z</time>
      </trkpt>
      <trkpt lat="42.92393" lon="-8.09481">
        <ele>412.8</ele>
        <time>2016-07-18T07:35:07Z</time>
      </trkpt>
      <trkpt lat="42.92401" lon="-8.09489">
        <ele>413.2</ele>
        <time>2016-07-18T07:35:16Z</time>
      </trkpt>
      <trkpt lat="42.92408" lon="-8.09499">
        <ele>413.5</ele>
        <time>2016-07-18T07:35:25Z</time>
      </trkpt>
      <trkpt lat="42.92414" lon="-8.09509">
        <ele>413.6</ele>
        <time>2016-07-18T07:35:34Z</time>
      </trkpt>
      <trkpt lat="42.92419" lon="-8.0952">
        <ele>413.9</ele>
        <time>2016-07-18T07:35:43Z</time>
      </trkpt>
      <trkpt lat="42.92423" lon="-8.09531">
        <ele>414.2</ele>
        <time>2016-07-18T07:35:51Z</time>
      </trkpt>
      <trkpt lat="42.92427" lon="-8.09542">
        <ele>414.4</ele>
        <time>2016-07-18T07:35:59Z</time>
      </trkpt>
      <trkpt lat="42.9243" lon="-8.09554">
        <ele>414.9</ele>
        <time>2016-07-18T07:36:08Z</time>
      </trkpt>
      <trkpt lat="42.92433" lon="-8.09567">
        <ele>415.2</ele>
        <time>2016-07-18T07:36:17Z</time>
      </trkpt>
      <trkpt lat="42.92437" lon="-8.0958">
        <ele>415.3</ele>
        <time>2016-07-18T07:36:26Z</time>
      </trkpt>
      <trkpt lat="42.9244" lon="-8.09592">
        <ele>415.6</ele>
        <time>2016-07-18T07:36:34Z</time>
      </trkpt>
      <trkpt lat="42.92444" lon="-8.09605">
        <ele>416.2</ele>
        <time>2016-07-18T07:36:43Z</time>
      </trkpt>
      <trkpt lat="42.92446" lon="-8.09617">
        <ele>417</ele>
        <time>2016-07-18T07:36:51Z</time>
      </trkpt>
      <trkpt lat="42.92448" lon="-8.09629">
        <ele>417</ele>
        <time>2016-07-18T07:36:59Z</time>
      </trkpt>
      <trkpt lat="42.92452" lon="-8.09641">
        <ele>416.9</ele>
        <time>2016-07-18T07:37:07Z</time>
      </trkpt>
      <trkpt lat="42.92456" lon="-8.09654">
        <ele>417.1</ele>
        <time>2016-07-18T07:37:17Z</time>
      </trkpt>
      <trkpt lat="42.92459" lon="-8.09666">
        <ele>417.6</ele>
        <time>2016-07-18T07:37:27Z</time>
      </trkpt>
      <trkpt lat="42.92462" lon="-8.0968">
        <ele>418.1</ele>
        <time>2016-07-18T07:37:36Z</time>
      </trkpt>
      <trkpt lat="42.92466" lon="-8.09691">
        <ele>418.3</ele>
        <time>2016-07-18T07:37:44Z</time>
      </trkpt>
      <trkpt lat="42.92469" lon="-8.09703">
        <ele>418.7</ele>
        <time>2016-07-18T07:37:52Z</time>
      </trkpt>
      <trkpt lat="42.92471" lon="-8.09715">
        <ele>418.6</ele>
        <time>2016-07-18T07:38:00Z</time>
      </trkpt>
      <trkpt lat="42.92472" lon="-8.09727">
        <ele>418.7</ele>
        <time>2016-07-18T07:38:08Z</time>
      </trkpt>
      <trkpt lat="42.92469" lon="-8.0974">
        <ele>419.1</ele>
        <time>2016-07-18T07:38:16Z</time>
      </trkpt>
      <trkpt lat="42.92466" lon="-8.09752">
        <ele>419.4</ele>
        <time>2016-07-18T07:38:24Z</time>
      </trkpt>
      <trkpt lat="42.92462" lon="-8.09764">
        <ele>419.4</ele>
        <time>2016-07-18T07:38:31Z</time>
      </trkpt>
      <trkpt lat="42.9246" lon="-8.09777">
        <ele>418.9</ele>
        <time>2016-07-18T07:38:39Z</time>
      </trkpt>
      <trkpt lat="42.92457" lon="-8.0979">
        <ele>418.2</ele>
        <time>2016-07-18T07:38:48Z</time>
      </trkpt>
      <trkpt lat="42.92455" lon="-8.09802">
        <ele>417.8</ele>
        <time>2016-07-18T07:38:57Z</time>
      </trkpt>
      <trkpt lat="42.92455" lon="-8.09814">
        <ele>417.6</ele>
        <time>2016-07-18T07:39:06Z</time>
      </trkpt>
      <trkpt lat="42.92455" lon="-8.09827">
        <ele>417.5</ele>
        <time>2016-07-18T07:39:14Z</time>
      </trkpt>
      <trkpt lat="42.92456" lon="-8.0984">
        <ele>417.6</ele>
        <time>2016-07-18T07:39:23Z</time>
      </trkpt>
      <trkpt lat="42.92458" lon="-8.09853">
        <ele>417.5</ele>
        <time>2016-07-18T07:39:32Z</time>
      </trkpt>
      <trkpt lat="42.92462" lon="-8.09864">
        <ele>417.2</ele>
        <time>2016-07-18T07:39:41Z</time>
      </trkpt>
      <trkpt lat="42.92465" lon="-8.09876">
        <ele>416.9</ele>
        <time>2016-07-18T07:39:49Z</time>
      </trkpt>
      <trkpt lat="42.92469" lon="-8.09888">
        <ele>416.1</ele>
        <time>2016-07-18T07:39:57Z</time>
      </trkpt>
      <trkpt lat="42.92471" lon="-8.09901">
        <ele>415.8</ele>
        <time>2016-07-18T07:40:05Z</time>
      </trkpt>
      <trkpt lat="42.92473" lon="-8.09915">
        <ele>415.5</ele>
        <time>2016-07-18T07:40:13Z</time>
      </trkpt>
      <trkpt lat="42.92472" lon="-8.09927">
        <ele>415.4</ele>
        <time>2016-07-18T07:40:21Z</time>
      </trkpt>
      <trkpt lat="42.9247" lon="-8.0994">
        <ele>414.9</ele>
        <time>2016-07-18T07:40:29Z</time>
      </trkpt>
      <trkpt lat="42.92468" lon="-8.09953">
        <ele>414.3</ele>
        <time>2016-07-18T07:40:37Z</time>
      </trkpt>
      <trkpt lat="42.92467" lon="-8.09965">
        <ele>414.3</ele>
        <time>2016-07-18T07:40:45Z</time>
      </trkpt>
      <trkpt lat="42.92467" lon="-8.09978">
        <ele>413.5</ele>
        <time>2016-07-18T07:40:54Z</time>
      </trkpt>
      <trkpt lat="42.92466" lon="-8.09992">
        <ele>413</ele>
        <time>2016-07-18T07:41:03Z</time>
      </trkpt>
      <trkpt lat="42.92467" lon="-8.10004">
        <ele>412.6</ele>
        <time>2016-07-18T07:41:12Z</time>
      </trkpt>
      <trkpt lat="42.92468" lon="-8.10018">
        <ele>412.4</ele>
        <time>2016-07-18T07:41:20Z</time>
      </trkpt>
      <trkpt lat="42.92468" lon="-8.10031">
        <ele>412.2</ele>
        <time>2016-07-18T07:41:28Z</time>
      </trkpt>
      <trkpt lat="42.92468" lon="-8.10045">
        <ele>412.1</ele>
        <time>2016-07-18T07:41:37Z</time>
      </trkpt>
      <trkpt lat="42.92468" lon="-8.10058">
        <ele>411.8</ele>
        <time>2016-07-18T07:41:45Z</time>
      </trkpt>
      <trkpt lat="42.92469" lon="-8.10072">
        <ele>411.4</ele>
        <time>2016-07-18T07:41:54Z</time>
      </trkpt>
      <trkpt lat="42.92468" lon="-8.10085">
        <ele>411.1</ele>
        <time>2016-07-18T07:42:02Z</time>
      </trkpt>
      <trkpt lat="42.92468" lon="-8.10097">
        <ele>410.9</ele>
        <time>2016-07-18T07:42:10Z</time>
      </trkpt>
      <trkpt lat="42.92467" lon="-8.10111">
        <ele>410.5</ele>
        <time>2016-07-18T07:42:20Z</time>
      </trkpt>
      <trkpt lat="42.92466" lon="-8.10124">
        <ele>410.1</ele>
        <time>2016-07-18T07:42:29Z</time>
      </trkpt>
      <trkpt lat="42.92467" lon="-8.10138">
        <ele>409.8</ele>
        <time>2016-07-18T07:42:38Z</time>
      </trkpt>
      <trkpt lat="42.92467" lon="-8.1015">
        <ele>409.8</ele>
        <time>2016-07-18T07:42:46Z</time>
      </trkpt>
      <trkpt lat="42.9247" lon="-8.10163">
        <ele>409.5</ele>
        <time>2016-07-18T07:42:53Z</time>
      </trkpt>
      <trkpt lat="42.92473" lon="-8.10174">
        <ele>409.2</ele>
        <time>2016-07-18T07:43:00Z</time>
      </trkpt>
      <trkpt lat="42.92477" lon="-8.10187">
        <ele>409.1</ele>
        <time>2016-07-18T07:43:07Z</time>
      </trkpt>
      <trkpt lat="42.92481" lon="-8.10199">
        <ele>409</ele>
        <time>2016-07-18T07:43:15Z</time>
      </trkpt>
      <trkpt lat="42.92485" lon="-8.1021">
        <ele>408.9</ele>
        <time>2016-07-18T07:43:23Z</time>
      </trkpt>
      <trkpt lat="42.92487" lon="-8.10223">
        <ele>408.2</ele>
        <time>2016-07-18T07:43:32Z</time>
      </trkpt>
      <trkpt lat="42.92492" lon="-8.10235">
        <ele>407.6</ele>
        <time>2016-07-18T07:43:42Z</time>
      </trkpt>
      <trkpt lat="42.92497" lon="-8.10246">
        <ele>407.3</ele>
        <time>2016-07-18T07:43:49Z</time>
      </trkpt>
      <trkpt lat="42.925" lon="-8.10258">
        <ele>406.8</ele>
        <time>2016-07-18T07:43:56Z</time>
      </trkpt>
      <trkpt lat="42.92503" lon="-8.1027">
        <ele>406.7</ele>
        <time>2016-07-18T07:44:04Z</time>
      </trkpt>
      <trkpt lat="42.92506" lon="-8.10283">
        <ele>406.6</ele>
        <time>2016-07-18T07:44:12Z</time>
      </trkpt>
      <trkpt lat="42.92509" lon="-8.10295">
        <ele>406</ele>
        <time>2016-07-18T07:44:20Z</time>
      </trkpt>
      <trkpt lat="42.92512" lon="-8.10307">
        <ele>405.2</ele>
        <time>2016-07-18T07:44:29Z</time>
      </trkpt>
      <trkpt lat="42.92515" lon="-8.1032">
        <ele>404</ele>
        <time>2016-07-18T07:44:37Z</time>
      </trkpt>
      <trkpt lat="42.92519" lon="-8.10332">
        <ele>403.3</ele>
        <time>2016-07-18T07:44:45Z</time>
      </trkpt>
      <trkpt lat="42.92523" lon="-8.10344">
        <ele>402.8</ele>
        <time>2016-07-18T07:44:53Z</time>
      </trkpt>
      <trkpt lat="42.92527" lon="-8.10355">
        <ele>402</ele>
        <time>2016-07-18T07:45:01Z</time>
      </trkpt>
      <trkpt lat="42.92534" lon="-8.10365">
        <ele>400.7</ele>
        <time>2016-07-18T07:45:09Z</time>
      </trkpt>
      <trkpt lat="42.92541" lon="-8.10375">
        <ele>399.8</ele>
        <time>2016-07-18T07:45:18Z</time>
      </trkpt>
      <trkpt lat="42.92549" lon="-8.10381">
        <ele>398.9</ele>
        <time>2016-07-18T07:45:26Z</time>
      </trkpt>
      <trkpt lat="42.92557" lon="-8.10389">
        <ele>397.9</ele>
        <time>2016-07-18T07:45:34Z</time>
      </trkpt>
      <trkpt lat="42.92566" lon="-8.10395">
        <ele>397</ele>
        <time>2016-07-18T07:45:43Z</time>
      </trkpt>
      <trkpt lat="42.92575" lon="-8.10403">
        <ele>395.7</ele>
        <time>2016-07-18T07:45:52Z</time>
      </trkpt>
      <trkpt lat="42.92583" lon="-8.10408">
        <ele>394.9</ele>
        <time>2016-07-18T07:46:01Z</time>
      </trkpt>
      <trkpt lat="42.92592" lon="-8.10413">
        <ele>393.5</ele>
        <time>2016-07-18T07:46:09Z</time>
      </trkpt>
      <trkpt lat="42.92602" lon="-8.10414">
        <ele>392.1</ele>
        <time>2016-07-18T07:46:18Z</time>
      </trkpt>
      <trkpt lat="42.92611" lon="-8.10416">
        <ele>390.5</ele>
        <time>2016-07-18T07:46:29Z</time>
      </trkpt>
      <trkpt lat="42.9262" lon="-8.10415">
        <ele>388.5</ele>
        <time>2016-07-18T07:46:45Z</time>
      </trkpt>
      <trkpt lat="42.9263" lon="-8.10417">
        <ele>388</ele>
        <time>2016-07-18T07:46:55Z</time>
      </trkpt>
      <trkpt lat="42.92639" lon="-8.10419">
        <ele>387.7</ele>
        <time>2016-07-18T07:47:04Z</time>
      </trkpt>
      <trkpt lat="42.92648" lon="-8.10422">
        <ele>387</ele>
        <time>2016-07-18T07:47:13Z</time>
      </trkpt>
      <trkpt lat="42.92655" lon="-8.10431">
        <ele>386.7</ele>
        <time>2016-07-18T07:47:23Z</time>
      </trkpt>
      <trkpt lat="42.92661" lon="-8.10441">
        <ele>386.5</ele>
        <time>2016-07-18T07:47:32Z</time>
      </trkpt>
      <trkpt lat="42.92666" lon="-8.10453">
        <ele>386.4</ele>
        <time>2016-07-18T07:47:41Z</time>
      </trkpt>
      <trkpt lat="42.92671" lon="-8.10464">
        <ele>386.4</ele>
        <time>2016-07-18T07:47:48Z</time>
      </trkpt>
      <trkpt lat="42.92677" lon="-8.10474">
        <ele>386.3</ele>
        <time>2016-07-18T07:47:55Z</time>
      </trkpt>
      <trkpt lat="42.9268" lon="-8.10486">
        <ele>386.6</ele>
        <time>2016-07-18T07:48:02Z</time>
      </trkpt>
      <trkpt lat="42.92684" lon="-8.10498">
        <ele>386.8</ele>
        <time>2016-07-18T07:48:09Z</time>
      </trkpt>
      <trkpt lat="42.92688" lon="-8.1051">
        <ele>387.1</ele>
        <time>2016-07-18T07:48:16Z</time>
      </trkpt>
      <trkpt lat="42.92692" lon="-8.10521">
        <ele>387.4</ele>
        <time>2016-07-18T07:48:25Z</time>
      </trkpt>
      <trkpt lat="42.92696" lon="-8.10533">
        <ele>387.6</ele>
        <time>2016-07-18T07:48:34Z</time>
      </trkpt>
      <trkpt lat="42.927" lon="-8.10544">
        <ele>388.2</ele>
        <time>2016-07-18T07:48:43Z</time>
      </trkpt>
      <trkpt lat="42.92704" lon="-8.10556">
        <ele>388.9</ele>
        <time>2016-07-18T07:48:52Z</time>
      </trkpt>
      <trkpt lat="42.92706" lon="-8.10569">
        <ele>389.4</ele>
        <time>2016-07-18T07:49:00Z</time>
      </trkpt>
      <trkpt lat="42.9271" lon="-8.1058">
        <ele>390.1</ele>
        <time>2016-07-18T07:49:08Z</time>
      </trkpt>
      <trkpt lat="42.92712" lon="-8.10592">
        <ele>390.7</ele>
        <time>2016-07-18T07:49:16Z</time>
      </trkpt>
      <trkpt lat="42.92716" lon="-8.10605">
        <ele>391.5</ele>
        <time>2016-07-18T07:49:24Z</time>
      </trkpt>
      <trkpt lat="42.9272" lon="-8.10617">
        <ele>391.9</ele>
        <time>2016-07-18T07:49:32Z</time>
      </trkpt>
      <trkpt lat="42.92723" lon="-8.10628">
        <ele>392.1</ele>
        <time>2016-07-18T07:49:40Z</time>
      </trkpt>
      <trkpt lat="42.92727" lon="-8.10641">
        <ele>392.6</ele>
        <time>2016-07-18T07:49:49Z</time>
      </trkpt>
      <trkpt lat="42.9273" lon="-8.10654">
        <ele>393</ele>
        <time>2016-07-18T07:49:58Z</time>
      </trkpt>
      <trkpt lat="42.92734" lon="-8.10666">
        <ele>393.4</ele>
        <time>2016-07-18T07:50:07Z</time>
      </trkpt>
      <trkpt lat="42.92738" lon="-8.10678">
        <ele>393.8</ele>
        <time>2016-07-18T07:50:15Z</time>
      </trkpt>
      <trkpt lat="42.92741" lon="-8.10691">
        <ele>394.3</ele>
        <time>2016-07-18T07:50:23Z</time>
      </trkpt>
      <trkpt lat="42.92745" lon="-8.10702">
        <ele>394.8</ele>
        <time>2016-07-18T07:50:31Z</time>
      </trkpt>
      <trkpt lat="42.92748" lon="-8.10715">
        <ele>394.7</ele>
        <time>2016-07-18T07:50:40Z</time>
      </trkpt>
      <trkpt lat="42.92752" lon="-8.10727">
        <ele>394.9</ele>
        <time>2016-07-18T07:50:49Z</time>
      </trkpt>
      <trkpt lat="42.92755" lon="-8.10739">
        <ele>395.2</ele>
        <time>2016-07-18T07:50:57Z</time>
      </trkpt>
      <trkpt lat="42.92758" lon="-8.10751">
        <ele>395.6</ele>
        <time>2016-07-18T07:51:06Z</time>
      </trkpt>
      <trkpt lat="42.92761" lon="-8.10763">
        <ele>396.1</ele>
        <time>2016-07-18T07:51:16Z</time>
      </trkpt>
      <trkpt lat="42.92764" lon="-8.10776">
        <ele>396.6</ele>
        <time>2016-07-18T07:51:25Z</time>
      </trkpt>
      <trkpt lat="42.92768" lon="-8.10788">
        <ele>397</ele>
        <time>2016-07-18T07:51:34Z</time>
      </trkpt>
      <trkpt lat="42.92771" lon="-8.108">
        <ele>397.7</ele>
        <time>2016-07-18T07:51:42Z</time>
      </trkpt>
      <trkpt lat="42.92775" lon="-8.10811">
        <ele>398.1</ele>
        <time>2016-07-18T07:51:50Z</time>
      </trkpt>
      <trkpt lat="42.92778" lon="-8.10824">
        <ele>398.5</ele>
        <time>2016-07-18T07:51:59Z</time>
      </trkpt>
      <trkpt lat="42.92781" lon="-8.10837">
        <ele>398.9</ele>
        <time>2016-07-18T07:52:08Z</time>
      </trkpt>
      <trkpt lat="42.92785" lon="-8.10849">
        <ele>399.4</ele>
        <time>2016-07-18T07:52:17Z</time>
      </trkpt>
      <trkpt lat="42.92788" lon="-8.10862">
        <ele>399.9</ele>
        <time>2016-07-18T07:52:25Z</time>
      </trkpt>
      <trkpt lat="42.92793" lon="-8.10874">
        <ele>400.3</ele>
        <time>2016-07-18T07:52:33Z</time>
      </trkpt>
      <trkpt lat="42.92796" lon="-8.10885">
        <ele>400.8</ele>
        <time>2016-07-18T07:52:41Z</time>
      </trkpt>
      <trkpt lat="42.928" lon="-8.10898">
        <ele>400.8</ele>
        <time>2016-07-18T07:52:51Z</time>
      </trkpt>
      <trkpt lat="42.92804" lon="-8.1091">
        <ele>401.2</ele>
        <time>2016-07-18T07:53:00Z</time>
      </trkpt>
      <trkpt lat="42.92807" lon="-8.10923">
        <ele>403.6</ele>
        <time>2016-07-18T07:53:34Z</time>
      </trkpt>
      <trkpt lat="42.92811" lon="-8.10934">
        <ele>403.6</ele>
        <time>2016-07-18T07:53:44Z</time>
      </trkpt>
      <trkpt lat="42.92814" lon="-8.10946">
        <ele>404.1</ele>
        <time>2016-07-18T07:53:53Z</time>
      </trkpt>
      <trkpt lat="42.92815" lon="-8.10959">
        <ele>404.7</ele>
        <time>2016-07-18T07:54:01Z</time>
      </trkpt>
      <trkpt lat="42.92816" lon="-8.10973">
        <ele>405.2</ele>
        <time>2016-07-18T07:54:10Z</time>
      </trkpt>
      <trkpt lat="42.92817" lon="-8.10986">
        <ele>405.7</ele>
        <time>2016-07-18T07:54:18Z</time>
      </trkpt>
      <trkpt lat="42.92817" lon="-8.10999">
        <ele>406.6</ele>
        <time>2016-07-18T07:54:29Z</time>
      </trkpt>
      <trkpt lat="42.92816" lon="-8.11012">
        <ele>407.5</ele>
        <time>2016-07-18T07:54:38Z</time>
      </trkpt>
      <trkpt lat="42.92815" lon="-8.11026">
        <ele>408.6</ele>
        <time>2016-07-18T07:54:48Z</time>
      </trkpt>
      <trkpt lat="42.92815" lon="-8.11039">
        <ele>409</ele>
        <time>2016-07-18T07:54:58Z</time>
      </trkpt>
      <trkpt lat="42.92814" lon="-8.11051">
        <ele>409.7</ele>
        <time>2016-07-18T07:55:07Z</time>
      </trkpt>
      <trkpt lat="42.92813" lon="-8.11065">
        <ele>410.3</ele>
        <time>2016-07-18T07:55:16Z</time>
      </trkpt>
      <trkpt lat="42.92811" lon="-8.11077">
        <ele>411.1</ele>
        <time>2016-07-18T07:55:25Z</time>
      </trkpt>
      <trkpt lat="42.92808" lon="-8.1109">
        <ele>411.5</ele>
        <time>2016-07-18T07:55:35Z</time>
      </trkpt>
      <trkpt lat="42.92803" lon="-8.11101">
        <ele>412.6</ele>
        <time>2016-07-18T07:55:44Z</time>
      </trkpt>
      <trkpt lat="42.928" lon="-8.11114">
        <ele>413.6</ele>
        <time>2016-07-18T07:55:54Z</time>
      </trkpt>
      <trkpt lat="42.92795" lon="-8.11126">
        <ele>414.5</ele>
        <time>2016-07-18T07:56:06Z</time>
      </trkpt>
      <trkpt lat="42.92789" lon="-8.11136">
        <ele>415.1</ele>
        <time>2016-07-18T07:56:15Z</time>
      </trkpt>
      <trkpt lat="42.92784" lon="-8.11146">
        <ele>415.9</ele>
        <time>2016-07-18T07:56:24Z</time>
      </trkpt>
      <trkpt lat="42.92778" lon="-8.11156">
        <ele>416.6</ele>
        <time>2016-07-18T07:56:32Z</time>
      </trkpt>
      <trkpt lat="42.92772" lon="-8.11165">
        <ele>417.3</ele>
        <time>2016-07-18T07:56:40Z</time>
      </trkpt>
      <trkpt lat="42.92765" lon="-8.11175">
        <ele>417.9</ele>
        <time>2016-07-18T07:56:49Z</time>
      </trkpt>
      <trkpt lat="42.92757" lon="-8.11184">
        <ele>418.8</ele>
        <time>2016-07-18T07:56:59Z</time>
      </trkpt>
      <trkpt lat="42.92752" lon="-8.11195">
        <ele>419.9</ele>
        <time>2016-07-18T07:57:10Z</time>
      </trkpt>
      <trkpt lat="42.92745" lon="-8.11204">
        <ele>421</ele>
        <time>2016-07-18T07:57:20Z</time>
      </trkpt>
      <trkpt lat="42.92739" lon="-8.11215">
        <ele>422.4</ele>
        <time>2016-07-18T07:57:31Z</time>
      </trkpt>
      <trkpt lat="42.92733" lon="-8.11224">
        <ele>423.4</ele>
        <time>2016-07-18T07:57:40Z</time>
      </trkpt>
      <trkpt lat="42.92727" lon="-8.11234">
        <ele>424.2</ele>
        <time>2016-07-18T07:57:49Z</time>
      </trkpt>
      <trkpt lat="42.92719" lon="-8.11242">
        <ele>425.2</ele>
        <time>2016-07-18T07:57:58Z</time>
      </trkpt>
      <trkpt lat="42.92717" lon="-8.11254">
        <ele>427</ele>
        <time>2016-07-18T07:58:12Z</time>
      </trkpt>
      <trkpt lat="42.92722" lon="-8.11265">
        <ele>428.8</ele>
        <time>2016-07-18T07:58:24Z</time>
      </trkpt>
      <trkpt lat="42.92729" lon="-8.11273">
        <ele>430.1</ele>
        <time>2016-07-18T07:58:36Z</time>
      </trkpt>
      <trkpt lat="42.92736" lon="-8.11282">
        <ele>431.4</ele>
        <time>2016-07-18T07:58:46Z</time>
      </trkpt>
      <trkpt lat="42.92743" lon="-8.11292">
        <ele>432.4</ele>
        <time>2016-07-18T07:58:56Z</time>
      </trkpt>
      <trkpt lat="42.92751" lon="-8.11299">
        <ele>434.1</ele>
        <time>2016-07-18T07:59:07Z</time>
      </trkpt>
      <trkpt lat="42.9276" lon="-8.11302">
        <ele>435.4</ele>
        <time>2016-07-18T07:59:18Z</time>
      </trkpt>
      <trkpt lat="42.92769" lon="-8.11302">
        <ele>436</ele>
        <time>2016-07-18T07:59:29Z</time>
      </trkpt>
      <trkpt lat="42.92779" lon="-8.11302">
        <ele>436.7</ele>
        <time>2016-07-18T07:59:39Z</time>
      </trkpt>
      <trkpt lat="42.92788" lon="-8.11297">
        <ele>438.1</ele>
        <time>2016-07-18T08:00:13Z</time>
      </trkpt>
      <trkpt lat="42.9279" lon="-8.1131">
        <ele>437.5</ele>
        <time>2016-07-18T08:01:56Z</time>
      </trkpt>
      <trkpt lat="42.92799" lon="-8.11314">
        <ele>437.5</ele>
        <time>2016-07-18T08:03:03Z</time>
      </trkpt>
      <trkpt lat="42.92806" lon="-8.11322">
        <ele>437.3</ele>
        <time>2016-07-18T08:03:33Z</time>
      </trkpt>
      <trkpt lat="42.92813" lon="-8.1133">
        <ele>437.1</ele>
        <time>2016-07-18T08:03:43Z</time>
      </trkpt>
      <trkpt lat="42.92821" lon="-8.11336">
        <ele>436.5</ele>
        <time>2016-07-18T08:03:54Z</time>
      </trkpt>
      <trkpt lat="42.9283" lon="-8.11343">
        <ele>435.7</ele>
        <time>2016-07-18T08:04:04Z</time>
      </trkpt>
      <trkpt lat="42.92838" lon="-8.11351">
        <ele>435.1</ele>
        <time>2016-07-18T08:04:13Z</time>
      </trkpt>
      <trkpt lat="42.92845" lon="-8.1136">
        <ele>434.4</ele>
        <time>2016-07-18T08:04:22Z</time>
      </trkpt>
      <trkpt lat="42.92851" lon="-8.11369">
        <ele>433.4</ele>
        <time>2016-07-18T08:04:31Z</time>
      </trkpt>
      <trkpt lat="42.92856" lon="-8.1138">
        <ele>432.5</ele>
        <time>2016-07-18T08:04:41Z</time>
      </trkpt>
      <trkpt lat="42.9286" lon="-8.11392">
        <ele>431</ele>
        <time>2016-07-18T08:04:51Z</time>
      </trkpt>
      <trkpt lat="42.92863" lon="-8.11403">
        <ele>429.2</ele>
        <time>2016-07-18T08:05:01Z</time>
      </trkpt>
      <trkpt lat="42.92868" lon="-8.11415">
        <ele>428</ele>
        <time>2016-07-18T08:05:11Z</time>
      </trkpt>
      <trkpt lat="42.9287" lon="-8.11428">
        <ele>427</ele>
        <time>2016-07-18T08:05:20Z</time>
      </trkpt>
      <trkpt lat="42.92872" lon="-8.1144">
        <ele>426</ele>
        <time>2016-07-18T08:05:29Z</time>
      </trkpt>
      <trkpt lat="42.92875" lon="-8.11452">
        <ele>424.6</ele>
        <time>2016-07-18T08:05:38Z</time>
      </trkpt>
      <trkpt lat="42.92876" lon="-8.11464">
        <ele>423.7</ele>
        <time>2016-07-18T08:05:46Z</time>
      </trkpt>
      <trkpt lat="42.92878" lon="-8.11478">
        <ele>422.6</ele>
        <time>2016-07-18T08:05:54Z</time>
      </trkpt>
      <trkpt lat="42.92882" lon="-8.11491">
        <ele>421.3</ele>
        <time>2016-07-18T08:06:01Z</time>
      </trkpt>
      <trkpt lat="42.92885" lon="-8.11502">
        <ele>420</ele>
        <time>2016-07-18T08:06:09Z</time>
      </trkpt>
      <trkpt lat="42.92888" lon="-8.11515">
        <ele>418.9</ele>
        <time>2016-07-18T08:06:18Z</time>
      </trkpt>
      <trkpt lat="42.9289" lon="-8.11528">
        <ele>418</ele>
        <time>2016-07-18T08:06:26Z</time>
      </trkpt>
      <trkpt lat="42.92892" lon="-8.1154">
        <ele>416.9</ele>
        <time>2016-07-18T08:06:33Z</time>
      </trkpt>
      <trkpt lat="42.92895" lon="-8.11553">
        <ele>416.5</ele>
        <time>2016-07-18T08:06:41Z</time>
      </trkpt>
      <trkpt lat="42.92897" lon="-8.11565">
        <ele>415.8</ele>
        <time>2016-07-18T08:06:49Z</time>
      </trkpt>
      <trkpt lat="42.92899" lon="-8.11577">
        <ele>414.1</ele>
        <time>2016-07-18T08:06:59Z</time>
      </trkpt>
      <trkpt lat="42.92901" lon="-8.11589">
        <ele>413.4</ele>
        <time>2016-07-18T08:07:06Z</time>
      </trkpt>
      <trkpt lat="42.92904" lon="-8.11603">
        <ele>412.7</ele>
        <time>2016-07-18T08:07:13Z</time>
      </trkpt>
      <trkpt lat="42.92907" lon="-8.11615">
        <ele>411.8</ele>
        <time>2016-07-18T08:07:21Z</time>
      </trkpt>
      <trkpt lat="42.92909" lon="-8.11628">
        <ele>411.1</ele>
        <time>2016-07-18T08:07:29Z</time>
      </trkpt>
      <trkpt lat="42.92912" lon="-8.11641">
        <ele>410.2</ele>
        <time>2016-07-18T08:07:37Z</time>
      </trkpt>
      <trkpt lat="42.92914" lon="-8.11654">
        <ele>409.5</ele>
        <time>2016-07-18T08:07:45Z</time>
      </trkpt>
      <trkpt lat="42.92914" lon="-8.11666">
        <ele>408.6</ele>
        <time>2016-07-18T08:07:54Z</time>
      </trkpt>
      <trkpt lat="42.92917" lon="-8.11679">
        <ele>407.5</ele>
        <time>2016-07-18T08:08:02Z</time>
      </trkpt>
      <trkpt lat="42.9292" lon="-8.11691">
        <ele>406.4</ele>
        <time>2016-07-18T08:08:11Z</time>
      </trkpt>
      <trkpt lat="42.92922" lon="-8.11703">
        <ele>405.5</ele>
        <time>2016-07-18T08:08:19Z</time>
      </trkpt>
      <trkpt lat="42.92924" lon="-8.11715">
        <ele>404.9</ele>
        <time>2016-07-18T08:08:27Z</time>
      </trkpt>
      <trkpt lat="42.92926" lon="-8.11729">
        <ele>404.3</ele>
        <time>2016-07-18T08:08:35Z</time>
      </trkpt>
      <trkpt lat="42.92927" lon="-8.11741">
        <ele>403.3</ele>
        <time>2016-07-18T08:08:43Z</time>
      </trkpt>
      <trkpt lat="42.92929" lon="-8.11754">
        <ele>402.3</ele>
        <time>2016-07-18T08:08:51Z</time>
      </trkpt>
      <trkpt lat="42.92931" lon="-8.11767">
        <ele>401.8</ele>
        <time>2016-07-18T08:09:00Z</time>
      </trkpt>
      <trkpt lat="42.92935" lon="-8.11777">
        <ele>401.1</ele>
        <time>2016-07-18T08:09:09Z</time>
      </trkpt>
      <trkpt lat="42.92937" lon="-8.11789">
        <ele>400.3</ele>
        <time>2016-07-18T08:09:19Z</time>
      </trkpt>
      <trkpt lat="42.9294" lon="-8.11803">
        <ele>398.8</ele>
        <time>2016-07-18T08:09:28Z</time>
      </trkpt>
      <trkpt lat="42.92943" lon="-8.11816">
        <ele>398.1</ele>
        <time>2016-07-18T08:09:36Z</time>
      </trkpt>
      <trkpt lat="42.92945" lon="-8.11829">
        <ele>397.2</ele>
        <time>2016-07-18T08:09:44Z</time>
      </trkpt>
      <trkpt lat="42.92948" lon="-8.11841">
        <ele>396.7</ele>
        <time>2016-07-18T08:09:55Z</time>
      </trkpt>
      <trkpt lat="42.92948" lon="-8.11855">
        <ele>396.5</ele>
        <time>2016-07-18T08:10:04Z</time>
      </trkpt>
      <trkpt lat="42.92951" lon="-8.11868">
        <ele>395.7</ele>
        <time>2016-07-18T08:10:14Z</time>
      </trkpt>
      <trkpt lat="42.92954" lon="-8.11879">
        <ele>394.8</ele>
        <time>2016-07-18T08:10:26Z</time>
      </trkpt>
      <trkpt lat="42.92957" lon="-8.11892">
        <ele>394.3</ele>
        <time>2016-07-18T08:10:34Z</time>
      </trkpt>
      <trkpt lat="42.92956" lon="-8.11905">
        <ele>393.5</ele>
        <time>2016-07-18T08:10:41Z</time>
      </trkpt>
      <trkpt lat="42.92956" lon="-8.11918">
        <ele>393</ele>
        <time>2016-07-18T08:10:49Z</time>
      </trkpt>
      <trkpt lat="42.92955" lon="-8.11932">
        <ele>392.3</ele>
        <time>2016-07-18T08:10:57Z</time>
      </trkpt>
      <trkpt lat="42.92954" lon="-8.11945">
        <ele>391.9</ele>
        <time>2016-07-18T08:11:04Z</time>
      </trkpt>
      <trkpt lat="42.92953" lon="-8.11958">
        <ele>391.5</ele>
        <time>2016-07-18T08:11:12Z</time>
      </trkpt>
      <trkpt lat="42.92952" lon="-8.1197">
        <ele>390.9</ele>
        <time>2016-07-18T08:11:19Z</time>
      </trkpt>
      <trkpt lat="42.92952" lon="-8.11984">
        <ele>390</ele>
        <time>2016-07-18T08:11:28Z</time>
      </trkpt>
      <trkpt lat="42.92953" lon="-8.11997">
        <ele>389.2</ele>
        <time>2016-07-18T08:11:38Z</time>
      </trkpt>
      <trkpt lat="42.9295" lon="-8.12008">
        <ele>389.2</ele>
        <time>2016-07-18T08:11:47Z</time>
      </trkpt>
      <trkpt lat="42.92943" lon="-8.12016">
        <ele>389.4</ele>
        <time>2016-07-18T08:11:55Z</time>
      </trkpt>
      <trkpt lat="42.92944" lon="-8.12029">
        <ele>389.8</ele>
        <time>2016-07-18T08:12:04Z</time>
      </trkpt>
      <trkpt lat="42.92949" lon="-8.12041">
        <ele>389.9</ele>
        <time>2016-07-18T08:12:12Z</time>
      </trkpt>
      <trkpt lat="42.92956" lon="-8.1205">
        <ele>390</ele>
        <time>2016-07-18T08:12:21Z</time>
      </trkpt>
      <trkpt lat="42.92963" lon="-8.12059">
        <ele>390</ele>
        <time>2016-07-18T08:12:30Z</time>
      </trkpt>
      <trkpt lat="42.92968" lon="-8.1207">
        <ele>390.4</ele>
        <time>2016-07-18T08:12:41Z</time>
      </trkpt>
      <trkpt lat="42.92971" lon="-8.12082">
        <ele>390.6</ele>
        <time>2016-07-18T08:12:50Z</time>
      </trkpt>
      <trkpt lat="42.92974" lon="-8.12094">
        <ele>390.7</ele>
        <time>2016-07-18T08:12:59Z</time>
      </trkpt>
      <trkpt lat="42.92976" lon="-8.12107">
        <ele>390.8</ele>
        <time>2016-07-18T08:13:07Z</time>
      </trkpt>
      <trkpt lat="42.92979" lon="-8.12119">
        <ele>390.7</ele>
        <time>2016-07-18T08:13:15Z</time>
      </trkpt>
      <trkpt lat="42.92983" lon="-8.12131">
        <ele>390.1</ele>
        <time>2016-07-18T08:13:24Z</time>
      </trkpt>
      <trkpt lat="42.92986" lon="-8.12142">
        <ele>389.3</ele>
        <time>2016-07-18T08:13:33Z</time>
      </trkpt>
      <trkpt lat="42.92989" lon="-8.12154">
        <ele>388.4</ele>
        <time>2016-07-18T08:13:42Z</time>
      </trkpt>
      <trkpt lat="42.92995" lon="-8.12165">
        <ele>387.7</ele>
        <time>2016-07-18T08:13:51Z</time>
      </trkpt>
      <trkpt lat="42.92996" lon="-8.12179">
        <ele>386.7</ele>
        <time>2016-07-18T08:14:00Z</time>
      </trkpt>
      <trkpt lat="42.92995" lon="-8.12191">
        <ele>385.9</ele>
        <time>2016-07-18T08:14:07Z</time>
      </trkpt>
      <trkpt lat="42.92997" lon="-8.12205">
        <ele>384.8</ele>
        <time>2016-07-18T08:14:16Z</time>
      </trkpt>
      <trkpt lat="42.92999" lon="-8.12219">
        <ele>383.8</ele>
        <time>2016-07-18T08:14:23Z</time>
      </trkpt>
      <trkpt lat="42.93" lon="-8.12233">
        <ele>383</ele>
        <time>2016-07-18T08:14:31Z</time>
      </trkpt>
      <trkpt lat="42.93002" lon="-8.12246">
        <ele>382.2</ele>
        <time>2016-07-18T08:14:37Z</time>
      </trkpt>
      <trkpt lat="42.93005" lon="-8.12258">
        <ele>381.2</ele>
        <time>2016-07-18T08:14:44Z</time>
      </trkpt>
      <trkpt lat="42.93009" lon="-8.12269">
        <ele>380.3</ele>
        <time>2016-07-18T08:14:52Z</time>
      </trkpt>
      <trkpt lat="42.93014" lon="-8.1228">
        <ele>379.8</ele>
        <time>2016-07-18T08:15:00Z</time>
      </trkpt>
      <trkpt lat="42.93015" lon="-8.12292">
        <ele>379.3</ele>
        <time>2016-07-18T08:15:07Z</time>
      </trkpt>
      <trkpt lat="42.93013" lon="-8.12304">
        <ele>378.5</ele>
        <time>2016-07-18T08:15:15Z</time>
      </trkpt>
      <trkpt lat="42.93012" lon="-8.12316">
        <ele>377.8</ele>
        <time>2016-07-18T08:15:23Z</time>
      </trkpt>
      <trkpt lat="42.93011" lon="-8.12329">
        <ele>376.6</ele>
        <time>2016-07-18T08:15:31Z</time>
      </trkpt>
      <trkpt lat="42.93008" lon="-8.12341">
        <ele>375.8</ele>
        <time>2016-07-18T08:15:38Z</time>
      </trkpt>
      <trkpt lat="42.93008" lon="-8.12354">
        <ele>374.4</ele>
        <time>2016-07-18T08:15:47Z</time>
      </trkpt>
      <trkpt lat="42.93009" lon="-8.12368">
        <ele>373.2</ele>
        <time>2016-07-18T08:15:56Z</time>
      </trkpt>
      <trkpt lat="42.93009" lon="-8.12381">
        <ele>372.3</ele>
        <time>2016-07-18T08:16:04Z</time>
      </trkpt>
      <trkpt lat="42.93008" lon="-8.12394">
        <ele>371.3</ele>
        <time>2016-07-18T08:16:11Z</time>
      </trkpt>
      <trkpt lat="42.9301" lon="-8.12407">
        <ele>370</ele>
        <time>2016-07-18T08:16:19Z</time>
      </trkpt>
      <trkpt lat="42.9301" lon="-8.1242">
        <ele>369</ele>
        <time>2016-07-18T08:16:27Z</time>
      </trkpt>
      <trkpt lat="42.93013" lon="-8.12432">
        <ele>367.8</ele>
        <time>2016-07-18T08:16:35Z</time>
      </trkpt>
      <trkpt lat="42.93016" lon="-8.12445">
        <ele>367</ele>
        <time>2016-07-18T08:16:43Z</time>
      </trkpt>
      <trkpt lat="42.93018" lon="-8.12458">
        <ele>366.1</ele>
        <time>2016-07-18T08:16:51Z</time>
      </trkpt>
      <trkpt lat="42.93021" lon="-8.12471">
        <ele>365.1</ele>
        <time>2016-07-18T08:16:59Z</time>
      </trkpt>
      <trkpt lat="42.93023" lon="-8.12484">
        <ele>363.8</ele>
        <time>2016-07-18T08:17:08Z</time>
      </trkpt>
      <trkpt lat="42.93025" lon="-8.12498">
        <ele>362.3</ele>
        <time>2016-07-18T08:17:17Z</time>
      </trkpt>
      <trkpt lat="42.93029" lon="-8.1251">
        <ele>361.5</ele>
        <time>2016-07-18T08:17:25Z</time>
      </trkpt>
      <trkpt lat="42.93034" lon="-8.12522">
        <ele>360</ele>
        <time>2016-07-18T08:17:33Z</time>
      </trkpt>
      <trkpt lat="42.93039" lon="-8.12534">
        <ele>359</ele>
        <time>2016-07-18T08:17:41Z</time>
      </trkpt>
      <trkpt lat="42.93045" lon="-8.12545">
        <ele>357.5</ele>
        <time>2016-07-18T08:17:50Z</time>
      </trkpt>
      <trkpt lat="42.93051" lon="-8.12555">
        <ele>356.1</ele>
        <time>2016-07-18T08:17:59Z</time>
      </trkpt>
      <trkpt lat="42.93058" lon="-8.12564">
        <ele>354.1</ele>
        <time>2016-07-18T08:18:08Z</time>
      </trkpt>
      <trkpt lat="42.93064" lon="-8.12574">
        <ele>352.8</ele>
        <time>2016-07-18T08:18:17Z</time>
      </trkpt>
      <trkpt lat="42.9307" lon="-8.12585">
        <ele>351.6</ele>
        <time>2016-07-18T08:18:26Z</time>
      </trkpt>
      <trkpt lat="42.93076" lon="-8.12595">
        <ele>350.9</ele>
        <time>2016-07-18T08:18:34Z</time>
      </trkpt>
      <trkpt lat="42.93081" lon="-8.12608">
        <ele>350</ele>
        <time>2016-07-18T08:18:44Z</time>
      </trkpt>
      <trkpt lat="42.93086" lon="-8.12618">
        <ele>349.2</ele>
        <time>2016-07-18T08:18:52Z</time>
      </trkpt>
      <trkpt lat="42.9309" lon="-8.12631">
        <ele>348.2</ele>
        <time>2016-07-18T08:19:00Z</time>
      </trkpt>
      <trkpt lat="42.93092" lon="-8.12644">
        <ele>347.3</ele>
        <time>2016-07-18T08:19:08Z</time>
      </trkpt>
      <trkpt lat="42.93096" lon="-8.12655">
        <ele>346.9</ele>
        <time>2016-07-18T08:19:15Z</time>
      </trkpt>
      <trkpt lat="42.93098" lon="-8.12669">
        <ele>346.3</ele>
        <time>2016-07-18T08:19:23Z</time>
      </trkpt>
      <trkpt lat="42.93101" lon="-8.12681">
        <ele>345.7</ele>
        <time>2016-07-18T08:19:31Z</time>
      </trkpt>
      <trkpt lat="42.93104" lon="-8.12694">
        <ele>344.6</ele>
        <time>2016-07-18T08:19:40Z</time>
      </trkpt>
      <trkpt lat="42.93104" lon="-8.12707">
        <ele>343.5</ele>
        <time>2016-07-18T08:19:48Z</time>
      </trkpt>
      <trkpt lat="42.93106" lon="-8.1272">
        <ele>342.3</ele>
        <time>2016-07-18T08:19:58Z</time>
      </trkpt>
      <trkpt lat="42.93108" lon="-8.12733">
        <ele>341</ele>
        <time>2016-07-18T08:20:06Z</time>
      </trkpt>
      <trkpt lat="42.93108" lon="-8.12746">
        <ele>339.3</ele>
        <time>2016-07-18T08:20:14Z</time>
      </trkpt>
      <trkpt lat="42.93107" lon="-8.12758">
        <ele>337.9</ele>
        <time>2016-07-18T08:20:22Z</time>
      </trkpt>
      <trkpt lat="42.93105" lon="-8.1277">
        <ele>336.9</ele>
        <time>2016-07-18T08:20:29Z</time>
      </trkpt>
      <trkpt lat="42.93104" lon="-8.12783">
        <ele>334.8</ele>
        <time>2016-07-18T08:20:39Z</time>
      </trkpt>
      <trkpt lat="42.93103" lon="-8.12796">
        <ele>332.8</ele>
        <time>2016-07-18T08:20:49Z</time>
      </trkpt>
      <trkpt lat="42.93103" lon="-8.12809">
        <ele>330.3</ele>
        <time>2016-07-18T08:20:59Z</time>
      </trkpt>
      <trkpt lat="42.931" lon="-8.12821">
        <ele>328.6</ele>
        <time>2016-07-18T08:21:07Z</time>
      </trkpt>
      <trkpt lat="42.931" lon="-8.12834">
        <ele>326.6</ele>
        <time>2016-07-18T08:21:17Z</time>
      </trkpt>
      <trkpt lat="42.93099" lon="-8.12847">
        <ele>325.3</ele>
        <time>2016-07-18T08:21:26Z</time>
      </trkpt>
      <trkpt lat="42.931" lon="-8.1286">
        <ele>324.1</ele>
        <time>2016-07-18T08:21:35Z</time>
      </trkpt>
      <trkpt lat="42.93102" lon="-8.12873">
        <ele>322.3</ele>
        <time>2016-07-18T08:21:44Z</time>
      </trkpt>
      <trkpt lat="42.93102" lon="-8.12886">
        <ele>320.7</ele>
        <time>2016-07-18T08:21:53Z</time>
      </trkpt>
      <trkpt lat="42.93104" lon="-8.12899">
        <ele>319.5</ele>
        <time>2016-07-18T08:22:01Z</time>
      </trkpt>
      <trkpt lat="42.93106" lon="-8.12912">
        <ele>318.6</ele>
        <time>2016-07-18T08:22:08Z</time>
      </trkpt>
      <trkpt lat="42.93109" lon="-8.12924">
        <ele>318</ele>
        <time>2016-07-18T08:22:14Z</time>
      </trkpt>
      <trkpt lat="42.9311" lon="-8.12937">
        <ele>317.6</ele>
        <time>2016-07-18T08:22:20Z</time>
      </trkpt>
      <trkpt lat="42.93109" lon="-8.1295">
        <ele>317.4</ele>
        <time>2016-07-18T08:22:27Z</time>
      </trkpt>
      <trkpt lat="42.93107" lon="-8.12962">
        <ele>316.7</ele>
        <time>2016-07-18T08:22:35Z</time>
      </trkpt>
      <trkpt lat="42.93103" lon="-8.12975">
        <ele>315.7</ele>
        <time>2016-07-18T08:22:44Z</time>
      </trkpt>
      <trkpt lat="42.93099" lon="-8.12986">
        <ele>315.6</ele>
        <time>2016-07-18T08:22:55Z</time>
      </trkpt>
      <trkpt lat="42.93096" lon="-8.12999">
        <ele>314.7</ele>
        <time>2016-07-18T08:23:11Z</time>
      </trkpt>
      <trkpt lat="42.93091" lon="-8.1301">
        <ele>314.1</ele>
        <time>2016-07-18T08:23:18Z</time>
      </trkpt>
      <trkpt lat="42.93086" lon="-8.1302">
        <ele>314</ele>
        <time>2016-07-18T08:23:28Z</time>
      </trkpt>
      <trkpt lat="42.93083" lon="-8.13032">
        <ele>314.1</ele>
        <time>2016-07-18T08:23:42Z</time>
      </trkpt>
      <trkpt lat="42.93077" lon="-8.13043">
        <ele>314.8</ele>
        <time>2016-07-18T08:24:02Z</time>
      </trkpt>
      <trkpt lat="42.93086" lon="-8.13041">
        <ele>313.1</ele>
        <time>2016-07-18T08:24:33Z</time>
      </trkpt>
      <trkpt lat="42.93079" lon="-8.13032">
        <ele>312.1</ele>
        <time>2016-07-18T08:24:59Z</time>
      </trkpt>
      <trkpt lat="42.93071" lon="-8.13038">
        <ele>311.6</ele>
        <time>2016-07-18T08:25:11Z</time>
      </trkpt>
      <trkpt lat="42.93065" lon="-8.13048">
        <ele>311.7</ele>
        <time>2016-07-18T08:25:21Z</time>
      </trkpt>
      <trkpt lat="42.93062" lon="-8.13061">
        <ele>312.7</ele>
        <time>2016-07-18T08:25:30Z</time>
      </trkpt>
      <trkpt lat="42.9306" lon="-8.13074">
        <ele>313</ele>
        <time>2016-07-18T08:25:39Z</time>
      </trkpt>
      <trkpt lat="42.93056" lon="-8.13086">
        <ele>313.5</ele>
        <time>2016-07-18T08:25:50Z</time>
      </trkpt>
      <trkpt lat="42.93053" lon="-8.13099">
        <ele>313.7</ele>
        <time>2016-07-18T08:26:00Z</time>
      </trkpt>
      <trkpt lat="42.9305" lon="-8.13111">
        <ele>313.8</ele>
        <time>2016-07-18T08:26:08Z</time>
      </trkpt>
      <trkpt lat="42.93049" lon="-8.13124">
        <ele>313.9</ele>
        <time>2016-07-18T08:26:17Z</time>
      </trkpt>
      <trkpt lat="42.93048" lon="-8.13137">
        <ele>314.3</ele>
        <time>2016-07-18T08:26:26Z</time>
      </trkpt>
      <trkpt lat="42.93046" lon="-8.13149">
        <ele>315</ele>
        <time>2016-07-18T08:26:35Z</time>
      </trkpt>
      <trkpt lat="42.93047" lon="-8.13161">
        <ele>315.4</ele>
        <time>2016-07-18T08:26:45Z</time>
      </trkpt>
      <trkpt lat="42.93048" lon="-8.13174">
        <ele>315.6</ele>
        <time>2016-07-18T08:26:54Z</time>
      </trkpt>
      <trkpt lat="42.9305" lon="-8.13187">
        <ele>315.8</ele>
        <time>2016-07-18T08:27:03Z</time>
      </trkpt>
      <trkpt lat="42.93052" lon="-8.132">
        <ele>316.7</ele>
        <time>2016-07-18T08:27:15Z</time>
      </trkpt>
      <trkpt lat="42.93054" lon="-8.13213">
        <ele>317</ele>
        <time>2016-07-18T08:27:24Z</time>
      </trkpt>
      <trkpt lat="42.93055" lon="-8.13226">
        <ele>317.9</ele>
        <time>2016-07-18T08:27:34Z</time>
      </trkpt>
      <trkpt lat="42.93057" lon="-8.13239">
        <ele>318.8</ele>
        <time>2016-07-18T08:27:44Z</time>
      </trkpt>
      <trkpt lat="42.93061" lon="-8.13251">
        <ele>319.9</ele>
        <time>2016-07-18T08:27:56Z</time>
      </trkpt>
      <trkpt lat="42.93064" lon="-8.13263">
        <ele>321</ele>
        <time>2016-07-18T08:28:06Z</time>
      </trkpt>
      <trkpt lat="42.93067" lon="-8.13275">
        <ele>322.3</ele>
        <time>2016-07-18T08:28:16Z</time>
      </trkpt>
      <trkpt lat="42.93069" lon="-8.13287">
        <ele>324.7</ele>
        <time>2016-07-18T08:28:26Z</time>
      </trkpt>
      <trkpt lat="42.9307" lon="-8.133">
        <ele>325.9</ele>
        <time>2016-07-18T08:28:36Z</time>
      </trkpt>
      <trkpt lat="42.93073" lon="-8.13313">
        <ele>327</ele>
        <time>2016-07-18T08:28:46Z</time>
      </trkpt>
      <trkpt lat="42.93073" lon="-8.13326">
        <ele>330.2</ele>
        <time>2016-07-18T08:30:24Z</time>
      </trkpt>
      <trkpt lat="42.93074" lon="-8.13339">
        <ele>330</ele>
        <time>2016-07-18T08:30:35Z</time>
      </trkpt>
      <trkpt lat="42.93078" lon="-8.13352">
        <ele>330</ele>
        <time>2016-07-18T08:30:45Z</time>
      </trkpt>
      <trkpt lat="42.93081" lon="-8.13364">
        <ele>330.5</ele>
        <time>2016-07-18T08:30:55Z</time>
      </trkpt>
      <trkpt lat="42.93084" lon="-8.13377">
        <ele>331.6</ele>
        <time>2016-07-18T08:31:05Z</time>
      </trkpt>
      <trkpt lat="42.93087" lon="-8.1339">
        <ele>332.5</ele>
        <time>2016-07-18T08:31:15Z</time>
      </trkpt>
      <trkpt lat="42.93091" lon="-8.13401">
        <ele>333.8</ele>
        <time>2016-07-18T08:31:25Z</time>
      </trkpt>
      <trkpt lat="42.93094" lon="-8.13414">
        <ele>334.9</ele>
        <time>2016-07-18T08:31:34Z</time>
      </trkpt>
      <trkpt lat="42.93096" lon="-8.13427">
        <ele>335.7</ele>
        <time>2016-07-18T08:31:43Z</time>
      </trkpt>
      <trkpt lat="42.93098" lon="-8.1344">
        <ele>336.7</ele>
        <time>2016-07-18T08:31:52Z</time>
      </trkpt>
      <trkpt lat="42.93099" lon="-8.13453">
        <ele>337.6</ele>
        <time>2016-07-18T08:32:01Z</time>
      </trkpt>
      <trkpt lat="42.93095" lon="-8.13465">
        <ele>338.2</ele>
        <time>2016-07-18T08:32:10Z</time>
      </trkpt>
      <trkpt lat="42.93088" lon="-8.13474">
        <ele>339.2</ele>
        <time>2016-07-18T08:32:19Z</time>
      </trkpt>
      <trkpt lat="42.93082" lon="-8.13484">
        <ele>341</ele>
        <time>2016-07-18T08:32:34Z</time>
      </trkpt>
      <trkpt lat="42.93075" lon="-8.13493">
        <ele>341.5</ele>
        <time>2016-07-18T08:32:44Z</time>
      </trkpt>
      <trkpt lat="42.93067" lon="-8.13501">
        <ele>342.5</ele>
        <time>2016-07-18T08:32:54Z</time>
      </trkpt>
      <trkpt lat="42.93061" lon="-8.13511">
        <ele>343.9</ele>
        <time>2016-07-18T08:33:05Z</time>
      </trkpt>
      <trkpt lat="42.93053" lon="-8.13519">
        <ele>344.7</ele>
        <time>2016-07-18T08:33:14Z</time>
      </trkpt>
      <trkpt lat="42.93044" lon="-8.13523">
        <ele>346.6</ele>
        <time>2016-07-18T08:33:28Z</time>
      </trkpt>
      <trkpt lat="42.93035" lon="-8.13526">
        <ele>347.3</ele>
        <time>2016-07-18T08:33:37Z</time>
      </trkpt>
      <trkpt lat="42.93025" lon="-8.13525">
        <ele>347.5</ele>
        <time>2016-07-18T08:33:46Z</time>
      </trkpt>
      <trkpt lat="42.93015" lon="-8.13526">
        <ele>347.4</ele>
        <time>2016-07-18T08:33:55Z</time>
      </trkpt>
      <trkpt lat="42.93007" lon="-8.13521">
        <ele>347.6</ele>
        <time>2016-07-18T08:34:16Z</time>
      </trkpt>
      <trkpt lat="42.92998" lon="-8.13521">
        <ele>347.2</ele>
        <time>2016-07-18T08:34:25Z</time>
      </trkpt>
      <trkpt lat="42.92988" lon="-8.13524">
        <ele>346.8</ele>
        <time>2016-07-18T08:34:34Z</time>
      </trkpt>
      <trkpt lat="42.92979" lon="-8.13526">
        <ele>346.4</ele>
        <time>2016-07-18T08:34:43Z</time>
      </trkpt>
      <trkpt lat="42.92969" lon="-8.13529">
        <ele>346.3</ele>
        <time>2016-07-18T08:34:51Z</time>
      </trkpt>
      <trkpt lat="42.9296" lon="-8.13532">
        <ele>346.2</ele>
        <time>2016-07-18T08:34:59Z</time>
      </trkpt>
      <trkpt lat="42.92953" lon="-8.1354">
        <ele>346.5</ele>
        <time>2016-07-18T08:35:16Z</time>
      </trkpt>
      <trkpt lat="42.92946" lon="-8.13548">
        <ele>345.4</ele>
        <time>2016-07-18T08:35:37Z</time>
      </trkpt>
      <trkpt lat="42.92937" lon="-8.13553">
        <ele>344.9</ele>
        <time>2016-07-18T08:35:47Z</time>
      </trkpt>
      <trkpt lat="42.92928" lon="-8.13557">
        <ele>344.3</ele>
        <time>2016-07-18T08:35:55Z</time>
      </trkpt>
      <trkpt lat="42.92922" lon="-8.13567">
        <ele>343.4</ele>
        <time>2016-07-18T08:36:05Z</time>
      </trkpt>
      <trkpt lat="42.9292" lon="-8.1358">
        <ele>342.6</ele>
        <time>2016-07-18T08:36:15Z</time>
      </trkpt>
      <trkpt lat="42.92925" lon="-8.13591">
        <ele>342.7</ele>
        <time>2016-07-18T08:36:36Z</time>
      </trkpt>
      <trkpt lat="42.92928" lon="-8.13603">
        <ele>342.5</ele>
        <time>2016-07-18T08:36:57Z</time>
      </trkpt>
      <trkpt lat="42.92919" lon="-8.13609">
        <ele>342.5</ele>
        <time>2016-07-18T08:37:06Z</time>
      </trkpt>
      <trkpt lat="42.9291" lon="-8.13612">
        <ele>342.9</ele>
        <time>2016-07-18T08:37:14Z</time>
      </trkpt>
      <trkpt lat="42.92902" lon="-8.13617">
        <ele>344.1</ele>
        <time>2016-07-18T08:37:23Z</time>
      </trkpt>
      <trkpt lat="42.92893" lon="-8.13622">
        <ele>345.3</ele>
        <time>2016-07-18T08:37:33Z</time>
      </trkpt>
      <trkpt lat="42.92887" lon="-8.13631">
        <ele>346.4</ele>
        <time>2016-07-18T08:37:41Z</time>
      </trkpt>
      <trkpt lat="42.92896" lon="-8.13633">
        <ele>347.8</ele>
        <time>2016-07-18T08:37:56Z</time>
      </trkpt>
      <trkpt lat="42.92905" lon="-8.1363">
        <ele>348.8</ele>
        <time>2016-07-18T08:38:06Z</time>
      </trkpt>
      <trkpt lat="42.92914" lon="-8.13627">
        <ele>349.7</ele>
        <time>2016-07-18T08:38:15Z</time>
      </trkpt>
      <trkpt lat="42.92923" lon="-8.13623">
        <ele>350.5</ele>
        <time>2016-07-18T08:38:23Z</time>
      </trkpt>
      <trkpt lat="42.92932" lon="-8.13621">
        <ele>351.3</ele>
        <time>2016-07-18T08:38:30Z</time>
      </trkpt>
      <trkpt lat="42.92942" lon="-8.1362">
        <ele>352.5</ele>
        <time>2016-07-18T08:38:40Z</time>
      </trkpt>
      <trkpt lat="42.9295" lon="-8.13615">
        <ele>353.8</ele>
        <time>2016-07-18T08:39:02Z</time>
      </trkpt>
      <trkpt lat="42.9296" lon="-8.13615">
        <ele>354</ele>
        <time>2016-07-18T08:39:12Z</time>
      </trkpt>
      <trkpt lat="42.92969" lon="-8.13613">
        <ele>354.3</ele>
        <time>2016-07-18T08:39:22Z</time>
      </trkpt>
      <trkpt lat="42.92978" lon="-8.13614">
        <ele>354.8</ele>
        <time>2016-07-18T08:39:31Z</time>
      </trkpt>
      <trkpt lat="42.92988" lon="-8.13613">
        <ele>355.1</ele>
        <time>2016-07-18T08:39:40Z</time>
      </trkpt>
      <trkpt lat="42.92997" lon="-8.13612">
        <ele>355.2</ele>
        <time>2016-07-18T08:39:49Z</time>
      </trkpt>
      <trkpt lat="42.93007" lon="-8.13612">
        <ele>355.7</ele>
        <time>2016-07-18T08:40:00Z</time>
      </trkpt>
      <trkpt lat="42.93016" lon="-8.13613">
        <ele>356.4</ele>
        <time>2016-07-18T08:40:09Z</time>
      </trkpt>
      <trkpt lat="42.93026" lon="-8.13616">
        <ele>357.2</ele>
        <time>2016-07-18T08:40:18Z</time>
      </trkpt>
      <trkpt lat="42.93035" lon="-8.13619">
        <ele>357.7</ele>
        <time>2016-07-18T08:40:27Z</time>
      </trkpt>
      <trkpt lat="42.93044" lon="-8.13623">
        <ele>358.4</ele>
        <time>2016-07-18T08:40:35Z</time>
      </trkpt>
      <trkpt lat="42.93053" lon="-8.13627">
        <ele>359.1</ele>
        <time>2016-07-18T08:40:47Z</time>
      </trkpt>
      <trkpt lat="42.9306" lon="-8.13635">
        <ele>359.9</ele>
        <time>2016-07-18T08:40:57Z</time>
      </trkpt>
      <trkpt lat="42.93067" lon="-8.13644">
        <ele>360.1</ele>
        <time>2016-07-18T08:41:06Z</time>
      </trkpt>
      <trkpt lat="42.93072" lon="-8.13655">
        <ele>360.7</ele>
        <time>2016-07-18T08:41:15Z</time>
      </trkpt>
      <trkpt lat="42.93077" lon="-8.13667">
        <ele>361</ele>
        <time>2016-07-18T08:41:24Z</time>
      </trkpt>
      <trkpt lat="42.9308" lon="-8.13679">
        <ele>361.4</ele>
        <time>2016-07-18T08:41:33Z</time>
      </trkpt>
      <trkpt lat="42.93084" lon="-8.13691">
        <ele>361.6</ele>
        <time>2016-07-18T08:41:43Z</time>
      </trkpt>
      <trkpt lat="42.93086" lon="-8.13704">
        <ele>362.1</ele>
        <time>2016-07-18T08:41:52Z</time>
      </trkpt>
      <trkpt lat="42.93089" lon="-8.13716">
        <ele>362.8</ele>
        <time>2016-07-18T08:42:01Z</time>
      </trkpt>
      <trkpt lat="42.93092" lon="-8.13729">
        <ele>363.5</ele>
        <time>2016-07-18T08:42:10Z</time>
      </trkpt>
      <trkpt lat="42.93093" lon="-8.13741">
        <ele>364.3</ele>
        <time>2016-07-18T08:42:19Z</time>
      </trkpt>
      <trkpt lat="42.93092" lon="-8.13754">
        <ele>364.7</ele>
        <time>2016-07-18T08:42:28Z</time>
      </trkpt>
      <trkpt lat="42.93096" lon="-8.13767">
        <ele>364.9</ele>
        <time>2016-07-18T08:42:38Z</time>
      </trkpt>
      <trkpt lat="42.93092" lon="-8.13779">
        <ele>365.7</ele>
        <time>2016-07-18T08:42:49Z</time>
      </trkpt>
      <trkpt lat="42.93091" lon="-8.13792">
        <ele>366.1</ele>
        <time>2016-07-18T08:42:59Z</time>
      </trkpt>
      <trkpt lat="42.93091" lon="-8.13805">
        <ele>366.9</ele>
        <time>2016-07-18T08:43:10Z</time>
      </trkpt>
      <trkpt lat="42.93091" lon="-8.13818">
        <ele>367.2</ele>
        <time>2016-07-18T08:43:19Z</time>
      </trkpt>
      <trkpt lat="42.93091" lon="-8.1383">
        <ele>367.3</ele>
        <time>2016-07-18T08:43:28Z</time>
      </trkpt>
      <trkpt lat="42.93089" lon="-8.13843">
        <ele>367.6</ele>
        <time>2016-07-18T08:43:36Z</time>
      </trkpt>
      <trkpt lat="42.93087" lon="-8.13855">
        <ele>368</ele>
        <time>2016-07-18T08:43:44Z</time>
      </trkpt>
      <trkpt lat="42.93085" lon="-8.13868">
        <ele>368.5</ele>
        <time>2016-07-18T08:43:53Z</time>
      </trkpt>
      <trkpt lat="42.93084" lon="-8.13881">
        <ele>369.3</ele>
        <time>2016-07-18T08:44:03Z</time>
      </trkpt>
      <trkpt lat="42.93083" lon="-8.13893">
        <ele>370</ele>
        <time>2016-07-18T08:44:12Z</time>
      </trkpt>
      <trkpt lat="42.93084" lon="-8.13906">
        <ele>370.5</ele>
        <time>2016-07-18T08:44:21Z</time>
      </trkpt>
      <trkpt lat="42.93082" lon="-8.13919">
        <ele>370.5</ele>
        <time>2016-07-18T08:44:30Z</time>
      </trkpt>
      <trkpt lat="42.93081" lon="-8.13933">
        <ele>371</ele>
        <time>2016-07-18T08:44:39Z</time>
      </trkpt>
      <trkpt lat="42.93079" lon="-8.13945">
        <ele>371.6</ele>
        <time>2016-07-18T08:44:48Z</time>
      </trkpt>
      <trkpt lat="42.93076" lon="-8.13957">
        <ele>372.4</ele>
        <time>2016-07-18T08:44:56Z</time>
      </trkpt>
      <trkpt lat="42.93074" lon="-8.1397">
        <ele>373.1</ele>
        <time>2016-07-18T08:45:05Z</time>
      </trkpt>
      <trkpt lat="42.93073" lon="-8.13984">
        <ele>373.4</ele>
        <time>2016-07-18T08:45:14Z</time>
      </trkpt>
      <trkpt lat="42.9307" lon="-8.13996">
        <ele>373.8</ele>
        <time>2016-07-18T08:45:23Z</time>
      </trkpt>
      <trkpt lat="42.93066" lon="-8.14008">
        <ele>374.3</ele>
        <time>2016-07-18T08:45:32Z</time>
      </trkpt>
      <trkpt lat="42.93062" lon="-8.1402">
        <ele>374.9</ele>
        <time>2016-07-18T08:45:42Z</time>
      </trkpt>
      <trkpt lat="42.93056" lon="-8.14032">
        <ele>375.4</ele>
        <time>2016-07-18T08:45:52Z</time>
      </trkpt>
      <trkpt lat="42.93051" lon="-8.14043">
        <ele>376.1</ele>
        <time>2016-07-18T08:46:01Z</time>
      </trkpt>
      <trkpt lat="42.93045" lon="-8.14054">
        <ele>376.6</ele>
        <time>2016-07-18T08:46:09Z</time>
      </trkpt>
      <trkpt lat="42.93041" lon="-8.14065">
        <ele>377.1</ele>
        <time>2016-07-18T08:46:17Z</time>
      </trkpt>
      <trkpt lat="42.93035" lon="-8.14077">
        <ele>377.8</ele>
        <time>2016-07-18T08:46:26Z</time>
      </trkpt>
      <trkpt lat="42.9303" lon="-8.14088">
        <ele>378.3</ele>
        <time>2016-07-18T08:46:35Z</time>
      </trkpt>
      <trkpt lat="42.93025" lon="-8.141">
        <ele>378.8</ele>
        <time>2016-07-18T08:46:45Z</time>
      </trkpt>
      <trkpt lat="42.9302" lon="-8.14111">
        <ele>379</ele>
        <time>2016-07-18T08:46:54Z</time>
      </trkpt>
      <trkpt lat="42.93015" lon="-8.14123">
        <ele>379.3</ele>
        <time>2016-07-18T08:47:04Z</time>
      </trkpt>
      <trkpt lat="42.93011" lon="-8.14134">
        <ele>380.2</ele>
        <time>2016-07-18T08:47:13Z</time>
      </trkpt>
      <trkpt lat="42.93005" lon="-8.14145">
        <ele>382.2</ele>
        <time>2016-07-18T08:47:44Z</time>
      </trkpt>
      <trkpt lat="42.93" lon="-8.14155">
        <ele>382.2</ele>
        <time>2016-07-18T08:47:54Z</time>
      </trkpt>
      <trkpt lat="42.92997" lon="-8.14168">
        <ele>382.4</ele>
        <time>2016-07-18T08:48:04Z</time>
      </trkpt>
      <trkpt lat="42.92996" lon="-8.14181">
        <ele>382.8</ele>
        <time>2016-07-18T08:48:14Z</time>
      </trkpt>
      <trkpt lat="42.92994" lon="-8.14194">
        <ele>383.2</ele>
        <time>2016-07-18T08:48:23Z</time>
      </trkpt>
      <trkpt lat="42.92995" lon="-8.14207">
        <ele>383.5</ele>
        <time>2016-07-18T08:48:33Z</time>
      </trkpt>
      <trkpt lat="42.92996" lon="-8.14219">
        <ele>383.9</ele>
        <time>2016-07-18T08:48:42Z</time>
      </trkpt>
      <trkpt lat="42.92995" lon="-8.14232">
        <ele>384.6</ele>
        <time>2016-07-18T08:48:50Z</time>
      </trkpt>
      <trkpt lat="42.92996" lon="-8.14246">
        <ele>385.2</ele>
        <time>2016-07-18T08:49:00Z</time>
      </trkpt>
      <trkpt lat="42.92997" lon="-8.14258">
        <ele>385.5</ele>
        <time>2016-07-18T08:49:08Z</time>
      </trkpt>
      <trkpt lat="42.92998" lon="-8.14271">
        <ele>385.8</ele>
        <time>2016-07-18T08:49:17Z</time>
      </trkpt>
      <trkpt lat="42.92999" lon="-8.14283">
        <ele>386.1</ele>
        <time>2016-07-18T08:49:26Z</time>
      </trkpt>
      <trkpt lat="42.92998" lon="-8.14296">
        <ele>386.4</ele>
        <time>2016-07-18T08:49:35Z</time>
      </trkpt>
      <trkpt lat="42.92998" lon="-8.1431">
        <ele>386.7</ele>
        <time>2016-07-18T08:49:45Z</time>
      </trkpt>
      <trkpt lat="42.92997" lon="-8.14322">
        <ele>387.3</ele>
        <time>2016-07-18T08:49:54Z</time>
      </trkpt>
      <trkpt lat="42.92996" lon="-8.14335">
        <ele>387.8</ele>
        <time>2016-07-18T08:50:02Z</time>
      </trkpt>
      <trkpt lat="42.92996" lon="-8.14348">
        <ele>388</ele>
        <time>2016-07-18T08:50:11Z</time>
      </trkpt>
      <trkpt lat="42.92996" lon="-8.14361">
        <ele>388.4</ele>
        <time>2016-07-18T08:50:20Z</time>
      </trkpt>
      <trkpt lat="42.92997" lon="-8.14374">
        <ele>388.7</ele>
        <time>2016-07-18T08:50:30Z</time>
      </trkpt>
      <trkpt lat="42.92998" lon="-8.14387">
        <ele>389.1</ele>
        <time>2016-07-18T08:50:40Z</time>
      </trkpt>
      <trkpt lat="42.92998" lon="-8.144">
        <ele>389.2</ele>
        <time>2016-07-18T08:50:49Z</time>
      </trkpt>
      <trkpt lat="42.92998" lon="-8.14413">
        <ele>389</ele>
        <time>2016-07-18T08:50:59Z</time>
      </trkpt>
      <trkpt lat="42.92998" lon="-8.14426">
        <ele>389.4</ele>
        <time>2016-07-18T08:51:06Z</time>
      </trkpt>
      <trkpt lat="42.92998" lon="-8.1444">
        <ele>389.7</ele>
        <time>2016-07-18T08:51:14Z</time>
      </trkpt>
      <trkpt lat="42.92996" lon="-8.14453">
        <ele>389.8</ele>
        <time>2016-07-18T08:51:21Z</time>
      </trkpt>
      <trkpt lat="42.92994" lon="-8.14466">
        <ele>390.1</ele>
        <time>2016-07-18T08:51:28Z</time>
      </trkpt>
      <trkpt lat="42.92995" lon="-8.14479">
        <ele>390.1</ele>
        <time>2016-07-18T08:51:38Z</time>
      </trkpt>
      <trkpt lat="42.92997" lon="-8.14491">
        <ele>390.6</ele>
        <time>2016-07-18T08:51:48Z</time>
      </trkpt>
      <trkpt lat="42.92998" lon="-8.14504">
        <ele>390.7</ele>
        <time>2016-07-18T08:51:57Z</time>
      </trkpt>
      <trkpt lat="42.92999" lon="-8.14517">
        <ele>391.2</ele>
        <time>2016-07-18T08:52:07Z</time>
      </trkpt>
      <trkpt lat="42.93" lon="-8.1453">
        <ele>391.1</ele>
        <time>2016-07-18T08:52:17Z</time>
      </trkpt>
      <trkpt lat="42.93001" lon="-8.14542">
        <ele>391.4</ele>
        <time>2016-07-18T08:52:26Z</time>
      </trkpt>
      <trkpt lat="42.93001" lon="-8.14555">
        <ele>391.7</ele>
        <time>2016-07-18T08:52:37Z</time>
      </trkpt>
      <trkpt lat="42.93" lon="-8.14568">
        <ele>392.3</ele>
        <time>2016-07-18T08:52:47Z</time>
      </trkpt>
      <trkpt lat="42.93" lon="-8.14581">
        <ele>392.7</ele>
        <time>2016-07-18T08:52:56Z</time>
      </trkpt>
      <trkpt lat="42.93" lon="-8.14594">
        <ele>392.7</ele>
        <time>2016-07-18T08:53:05Z</time>
      </trkpt>
      <trkpt lat="42.93" lon="-8.14607">
        <ele>392.6</ele>
        <time>2016-07-18T08:53:13Z</time>
      </trkpt>
      <trkpt lat="42.93" lon="-8.1462">
        <ele>392</ele>
        <time>2016-07-18T08:53:22Z</time>
      </trkpt>
      <trkpt lat="42.92999" lon="-8.14633">
        <ele>392.4</ele>
        <time>2016-07-18T08:53:31Z</time>
      </trkpt>
      <trkpt lat="42.92998" lon="-8.14646">
        <ele>392.6</ele>
        <time>2016-07-18T08:53:40Z</time>
      </trkpt>
      <trkpt lat="42.92998" lon="-8.14658">
        <ele>393</ele>
        <time>2016-07-18T08:53:50Z</time>
      </trkpt>
      <trkpt lat="42.92998" lon="-8.14672">
        <ele>394.2</ele>
        <time>2016-07-18T08:54:02Z</time>
      </trkpt>
      <trkpt lat="42.92996" lon="-8.14684">
        <ele>394.5</ele>
        <time>2016-07-18T08:54:11Z</time>
      </trkpt>
      <trkpt lat="42.92996" lon="-8.14697">
        <ele>394.6</ele>
        <time>2016-07-18T08:54:20Z</time>
      </trkpt>
      <trkpt lat="42.92996" lon="-8.14709">
        <ele>395</ele>
        <time>2016-07-18T08:54:27Z</time>
      </trkpt>
      <trkpt lat="42.92997" lon="-8.14723">
        <ele>395.1</ele>
        <time>2016-07-18T08:54:41Z</time>
      </trkpt>
      <trkpt lat="42.92997" lon="-8.14736">
        <ele>395.1</ele>
        <time>2016-07-18T08:54:50Z</time>
      </trkpt>
      <trkpt lat="42.92999" lon="-8.14748">
        <ele>395.2</ele>
        <time>2016-07-18T08:54:59Z</time>
      </trkpt>
      <trkpt lat="42.93" lon="-8.14762">
        <ele>395.4</ele>
        <time>2016-07-18T08:55:09Z</time>
      </trkpt>
      <trkpt lat="42.93" lon="-8.14775">
        <ele>395.1</ele>
        <time>2016-07-18T08:55:18Z</time>
      </trkpt>
      <trkpt lat="42.93" lon="-8.14789">
        <ele>395.2</ele>
        <time>2016-07-18T08:55:27Z</time>
      </trkpt>
      <trkpt lat="42.92999" lon="-8.14801">
        <ele>395.8</ele>
        <time>2016-07-18T08:55:35Z</time>
      </trkpt>
      <trkpt lat="42.93" lon="-8.14814">
        <ele>396.1</ele>
        <time>2016-07-18T08:55:44Z</time>
      </trkpt>
      <trkpt lat="42.93001" lon="-8.14828">
        <ele>396.4</ele>
        <time>2016-07-18T08:55:54Z</time>
      </trkpt>
      <trkpt lat="42.93001" lon="-8.1484">
        <ele>396.5</ele>
        <time>2016-07-18T08:56:03Z</time>
      </trkpt>
      <trkpt lat="42.93002" lon="-8.14852">
        <ele>396.3</ele>
        <time>2016-07-18T08:56:12Z</time>
      </trkpt>
      <trkpt lat="42.93002" lon="-8.14865">
        <ele>396.4</ele>
        <time>2016-07-18T08:56:20Z</time>
      </trkpt>
      <trkpt lat="42.93003" lon="-8.14878">
        <ele>396.3</ele>
        <time>2016-07-18T08:56:29Z</time>
      </trkpt>
      <trkpt lat="42.93001" lon="-8.14891">
        <ele>396</ele>
        <time>2016-07-18T08:56:37Z</time>
      </trkpt>
      <trkpt lat="42.93001" lon="-8.14904">
        <ele>395.9</ele>
        <time>2016-07-18T08:56:46Z</time>
      </trkpt>
      <trkpt lat="42.93002" lon="-8.14918">
        <ele>395.4</ele>
        <time>2016-07-18T08:56:55Z</time>
      </trkpt>
      <trkpt lat="42.93004" lon="-8.1493">
        <ele>395.3</ele>
        <time>2016-07-18T08:57:04Z</time>
      </trkpt>
      <trkpt lat="42.93005" lon="-8.14943">
        <ele>394.7</ele>
        <time>2016-07-18T08:57:14Z</time>
      </trkpt>
      <trkpt lat="42.93006" lon="-8.14956">
        <ele>394.5</ele>
        <time>2016-07-18T08:57:23Z</time>
      </trkpt>
      <trkpt lat="42.93005" lon="-8.14969">
        <ele>394.6</ele>
        <time>2016-07-18T08:57:31Z</time>
      </trkpt>
      <trkpt lat="42.93004" lon="-8.14983">
        <ele>394.3</ele>
        <time>2016-07-18T08:57:38Z</time>
      </trkpt>
      <trkpt lat="42.93006" lon="-8.14996">
        <ele>393.9</ele>
        <time>2016-07-18T08:57:47Z</time>
      </trkpt>
      <trkpt lat="42.93006" lon="-8.15009">
        <ele>393.6</ele>
        <time>2016-07-18T08:57:54Z</time>
      </trkpt>
      <trkpt lat="42.93005" lon="-8.15023">
        <ele>393.4</ele>
        <time>2016-07-18T08:58:02Z</time>
      </trkpt>
      <trkpt lat="42.93006" lon="-8.15035">
        <ele>393.5</ele>
        <time>2016-07-18T08:58:10Z</time>
      </trkpt>
      <trkpt lat="42.93007" lon="-8.15048">
        <ele>393.4</ele>
        <time>2016-07-18T08:58:18Z</time>
      </trkpt>
      <trkpt lat="42.93007" lon="-8.15061">
        <ele>392.9</ele>
        <time>2016-07-18T08:58:27Z</time>
      </trkpt>
      <trkpt lat="42.93007" lon="-8.15074">
        <ele>392.7</ele>
        <time>2016-07-18T08:58:36Z</time>
      </trkpt>
      <trkpt lat="42.93008" lon="-8.15086">
        <ele>392.5</ele>
        <time>2016-07-18T08:58:45Z</time>
      </trkpt>
      <trkpt lat="42.93009" lon="-8.15098">
        <ele>392.3</ele>
        <time>2016-07-18T08:58:54Z</time>
      </trkpt>
      <trkpt lat="42.93009" lon="-8.15111">
        <ele>392.4</ele>
        <time>2016-07-18T08:59:04Z</time>
      </trkpt>
      <trkpt lat="42.93007" lon="-8.15124">
        <ele>392.4</ele>
        <time>2016-07-18T08:59:13Z</time>
      </trkpt>
      <trkpt lat="42.93005" lon="-8.15136">
        <ele>392.6</ele>
        <time>2016-07-18T08:59:22Z</time>
      </trkpt>
      <trkpt lat="42.93006" lon="-8.1515">
        <ele>392.8</ele>
        <time>2016-07-18T08:59:31Z</time>
      </trkpt>
      <trkpt lat="42.93006" lon="-8.15163">
        <ele>393.1</ele>
        <time>2016-07-18T08:59:40Z</time>
      </trkpt>
      <trkpt lat="42.93005" lon="-8.15176">
        <ele>393.5</ele>
        <time>2016-07-18T08:59:49Z</time>
      </trkpt>
      <trkpt lat="42.93004" lon="-8.15189">
        <ele>393.8</ele>
        <time>2016-07-18T08:59:58Z</time>
      </trkpt>
      <trkpt lat="42.93004" lon="-8.15203">
        <ele>393.8</ele>
        <time>2016-07-18T09:00:07Z</time>
      </trkpt>
      <trkpt lat="42.93003" lon="-8.15216">
        <ele>394.2</ele>
        <time>2016-07-18T09:00:16Z</time>
      </trkpt>
      <trkpt lat="42.93002" lon="-8.15229">
        <ele>394.7</ele>
        <time>2016-07-18T09:00:26Z</time>
      </trkpt>
      <trkpt lat="42.93" lon="-8.15242">
        <ele>395</ele>
        <time>2016-07-18T09:00:35Z</time>
      </trkpt>
      <trkpt lat="42.92998" lon="-8.15255">
        <ele>395.5</ele>
        <time>2016-07-18T09:00:44Z</time>
      </trkpt>
      <trkpt lat="42.92995" lon="-8.15267">
        <ele>395.8</ele>
        <time>2016-07-18T09:00:54Z</time>
      </trkpt>
      <trkpt lat="42.92992" lon="-8.15279">
        <ele>395.9</ele>
        <time>2016-07-18T09:01:03Z</time>
      </trkpt>
      <trkpt lat="42.92989" lon="-8.15292">
        <ele>396</ele>
        <time>2016-07-18T09:01:13Z</time>
      </trkpt>
      <trkpt lat="42.92987" lon="-8.15304">
        <ele>396.5</ele>
        <time>2016-07-18T09:01:36Z</time>
      </trkpt>
      <trkpt lat="42.92984" lon="-8.15316">
        <ele>396.4</ele>
        <time>2016-07-18T09:01:45Z</time>
      </trkpt>
      <trkpt lat="42.92979" lon="-8.15328">
        <ele>396.5</ele>
        <time>2016-07-18T09:01:54Z</time>
      </trkpt>
      <trkpt lat="42.92974" lon="-8.15338">
        <ele>396.9</ele>
        <time>2016-07-18T09:02:02Z</time>
      </trkpt>
      <trkpt lat="42.92969" lon="-8.15349">
        <ele>397.1</ele>
        <time>2016-07-18T09:02:11Z</time>
      </trkpt>
      <trkpt lat="42.92966" lon="-8.15361">
        <ele>397.3</ele>
        <time>2016-07-18T09:02:19Z</time>
      </trkpt>
      <trkpt lat="42.92961" lon="-8.15372">
        <ele>397.5</ele>
        <time>2016-07-18T09:02:27Z</time>
      </trkpt>
      <trkpt lat="42.9296" lon="-8.15385">
        <ele>397.6</ele>
        <time>2016-07-18T09:02:36Z</time>
      </trkpt>
      <trkpt lat="42.92957" lon="-8.15397">
        <ele>397.7</ele>
        <time>2016-07-18T09:02:44Z</time>
      </trkpt>
      <trkpt lat="42.92954" lon="-8.1541">
        <ele>397.7</ele>
        <time>2016-07-18T09:02:53Z</time>
      </trkpt>
      <trkpt lat="42.92949" lon="-8.15421">
        <ele>397.9</ele>
        <time>2016-07-18T09:03:01Z</time>
      </trkpt>
      <trkpt lat="42.92945" lon="-8.15432">
        <ele>398.2</ele>
        <time>2016-07-18T09:03:10Z</time>
      </trkpt>
      <trkpt lat="42.9294" lon="-8.15443">
        <ele>398.3</ele>
        <time>2016-07-18T09:03:19Z</time>
      </trkpt>
      <trkpt lat="42.92936" lon="-8.15455">
        <ele>398.9</ele>
        <time>2016-07-18T09:03:28Z</time>
      </trkpt>
      <trkpt lat="42.9293" lon="-8.15466">
        <ele>398.8</ele>
        <time>2016-07-18T09:03:37Z</time>
      </trkpt>
      <trkpt lat="42.92926" lon="-8.15477">
        <ele>399.1</ele>
        <time>2016-07-18T09:03:47Z</time>
      </trkpt>
      <trkpt lat="42.92922" lon="-8.15489">
        <ele>399.4</ele>
        <time>2016-07-18T09:03:58Z</time>
      </trkpt>
      <trkpt lat="42.92916" lon="-8.15499">
        <ele>399.5</ele>
        <time>2016-07-18T09:04:06Z</time>
      </trkpt>
      <trkpt lat="42.92912" lon="-8.15511">
        <ele>400.1</ele>
        <time>2016-07-18T09:04:22Z</time>
      </trkpt>
      <trkpt lat="42.92908" lon="-8.15523">
        <ele>400.6</ele>
        <time>2016-07-18T09:04:32Z</time>
      </trkpt>
      <trkpt lat="42.92907" lon="-8.15535">
        <ele>400.8</ele>
        <time>2016-07-18T09:04:44Z</time>
      </trkpt>
      <trkpt lat="42.92909" lon="-8.15548">
        <ele>400.7</ele>
        <time>2016-07-18T09:04:57Z</time>
      </trkpt>
      <trkpt lat="42.9291" lon="-8.1556">
        <ele>400.7</ele>
        <time>2016-07-18T09:05:07Z</time>
      </trkpt>
      <trkpt lat="42.92909" lon="-8.15573">
        <ele>400.9</ele>
        <time>2016-07-18T09:05:21Z</time>
      </trkpt>
      <trkpt lat="42.92908" lon="-8.15586">
        <ele>401.7</ele>
        <time>2016-07-18T09:07:11Z</time>
      </trkpt>
      <trkpt lat="42.92901" lon="-8.15582">
        <ele>400.1</ele>
        <time>2016-07-18T09:14:19Z</time>
      </trkpt>
    </trkseg>
  </trk>
</gpx>